<?xml version="1.0" encoding="UTF-8" standalone="no" ?>
<gpx xmlns="http://www.topografix.com/GPX/1/1" xmlns:xsi="http://www.w3.org/2001/XMLSchema-instance" xsi:schemaLocation="http://www.topografix.com/GPX/1/1 http://www.topografix.com/GPX/1/1/gpx.xsd" version="1.1" creator="VisuGPX - https://www.visugpx.com">
  <metadata>
    <name>Rando - Le But de Nève.</name>
    <desc><![CDATA[Une bien jolie rando avec des points de vue superbes.]]></desc>
  </metadata>
  <trk>
    <name><![CDATA[23-MARS-21 11:58:33]]></name>
    <trkseg>
      <trkpt lat="44.8381" lon="5.39742">
        <ele>1242.64</ele>
        <time>2021-03-23T08:12:13Z</time>
      </trkpt>
      <trkpt lat="44.8381" lon="5.39742">
        <ele>1242.16</ele>
        <time>2021-03-23T08:12:17Z</time>
      </trkpt>
      <trkpt lat="44.8381" lon="5.39741">
        <ele>1245.53</ele>
        <time>2021-03-23T08:12:24Z</time>
      </trkpt>
      <trkpt lat="44.8381" lon="5.39741">
        <ele>1244.08</ele>
        <time>2021-03-23T08:12:26Z</time>
      </trkpt>
      <trkpt lat="44.8381" lon="5.39741">
        <ele>1246.01</ele>
        <time>2021-03-23T08:12:45Z</time>
      </trkpt>
      <trkpt lat="44.8381" lon="5.39742">
        <ele>1246.49</ele>
        <time>2021-03-23T08:12:56Z</time>
      </trkpt>
      <trkpt lat="44.83809" lon="5.3974">
        <ele>1246.49</ele>
        <time>2021-03-23T08:13:02Z</time>
      </trkpt>
      <trkpt lat="44.83806" lon="5.39737">
        <ele>1246.49</ele>
        <time>2021-03-23T08:13:05Z</time>
      </trkpt>
      <trkpt lat="44.83805" lon="5.39726">
        <ele>1246.01</ele>
        <time>2021-03-23T08:13:10Z</time>
      </trkpt>
      <trkpt lat="44.83806" lon="5.39696">
        <ele>1245.53</ele>
        <time>2021-03-23T08:13:25Z</time>
      </trkpt>
      <trkpt lat="44.8381" lon="5.39666">
        <ele>1244.56</ele>
        <time>2021-03-23T08:13:39Z</time>
      </trkpt>
      <trkpt lat="44.83816" lon="5.3965">
        <ele>1243.6</ele>
        <time>2021-03-23T08:13:49Z</time>
      </trkpt>
      <trkpt lat="44.83821" lon="5.39645">
        <ele>1243.12</ele>
        <time>2021-03-23T08:13:56Z</time>
      </trkpt>
      <trkpt lat="44.83823" lon="5.39638">
        <ele>1242.64</ele>
        <time>2021-03-23T08:14:00Z</time>
      </trkpt>
      <trkpt lat="44.83825" lon="5.39632">
        <ele>1242.64</ele>
        <time>2021-03-23T08:14:06Z</time>
      </trkpt>
      <trkpt lat="44.83826" lon="5.39623">
        <ele>1242.64</ele>
        <time>2021-03-23T08:14:18Z</time>
      </trkpt>
      <trkpt lat="44.83827" lon="5.3962">
        <ele>1243.12</ele>
        <time>2021-03-23T08:14:30Z</time>
      </trkpt>
      <trkpt lat="44.83832" lon="5.39611">
        <ele>1245.04</ele>
        <time>2021-03-23T08:14:43Z</time>
      </trkpt>
      <trkpt lat="44.83833" lon="5.39609">
        <ele>1244.56</ele>
        <time>2021-03-23T08:14:44Z</time>
      </trkpt>
      <trkpt lat="44.83842" lon="5.3959">
        <ele>1246.01</ele>
        <time>2021-03-23T08:14:58Z</time>
      </trkpt>
      <trkpt lat="44.83845" lon="5.39581">
        <ele>1245.53</ele>
        <time>2021-03-23T08:15:04Z</time>
      </trkpt>
      <trkpt lat="44.83853" lon="5.39567">
        <ele>1247.93</ele>
        <time>2021-03-23T08:15:13Z</time>
      </trkpt>
      <trkpt lat="44.83854" lon="5.39562">
        <ele>1246.97</ele>
        <time>2021-03-23T08:15:16Z</time>
      </trkpt>
      <trkpt lat="44.83865" lon="5.39545">
        <ele>1248.89</ele>
        <time>2021-03-23T08:15:30Z</time>
      </trkpt>
      <trkpt lat="44.83875" lon="5.39525">
        <ele>1250.81</ele>
        <time>2021-03-23T08:15:43Z</time>
      </trkpt>
      <trkpt lat="44.83887" lon="5.3951">
        <ele>1250.81</ele>
        <time>2021-03-23T08:15:56Z</time>
      </trkpt>
      <trkpt lat="44.8391" lon="5.39494">
        <ele>1254.18</ele>
        <time>2021-03-23T08:16:13Z</time>
      </trkpt>
      <trkpt lat="44.83929" lon="5.39483">
        <ele>1255.14</ele>
        <time>2021-03-23T08:16:29Z</time>
      </trkpt>
      <trkpt lat="44.83943" lon="5.3946">
        <ele>1256.1</ele>
        <time>2021-03-23T08:16:43Z</time>
      </trkpt>
      <trkpt lat="44.83945" lon="5.39456">
        <ele>1256.58</ele>
        <time>2021-03-23T08:16:48Z</time>
      </trkpt>
      <trkpt lat="44.83954" lon="5.39441">
        <ele>1257.06</ele>
        <time>2021-03-23T08:16:56Z</time>
      </trkpt>
      <trkpt lat="44.83965" lon="5.39424">
        <ele>1258.98</ele>
        <time>2021-03-23T08:17:10Z</time>
      </trkpt>
      <trkpt lat="44.83974" lon="5.39408">
        <ele>1259.94</ele>
        <time>2021-03-23T08:17:24Z</time>
      </trkpt>
      <trkpt lat="44.83987" lon="5.39385">
        <ele>1261.39</ele>
        <time>2021-03-23T08:17:39Z</time>
      </trkpt>
      <trkpt lat="44.83993" lon="5.39373">
        <ele>1261.87</ele>
        <time>2021-03-23T08:17:47Z</time>
      </trkpt>
      <trkpt lat="44.83998" lon="5.3936">
        <ele>1263.79</ele>
        <time>2021-03-23T08:18:01Z</time>
      </trkpt>
      <trkpt lat="44.83995" lon="5.39355">
        <ele>1263.31</ele>
        <time>2021-03-23T08:18:04Z</time>
      </trkpt>
      <trkpt lat="44.83985" lon="5.39335">
        <ele>1263.31</ele>
        <time>2021-03-23T08:18:17Z</time>
      </trkpt>
      <trkpt lat="44.83973" lon="5.39311">
        <ele>1265.23</ele>
        <time>2021-03-23T08:18:32Z</time>
      </trkpt>
      <trkpt lat="44.83968" lon="5.39294">
        <ele>1265.71</ele>
        <time>2021-03-23T08:18:47Z</time>
      </trkpt>
      <trkpt lat="44.8396" lon="5.39275">
        <ele>1267.16</ele>
        <time>2021-03-23T08:19:06Z</time>
      </trkpt>
      <trkpt lat="44.83949" lon="5.39247">
        <ele>1268.12</ele>
        <time>2021-03-23T08:19:23Z</time>
      </trkpt>
      <trkpt lat="44.83931" lon="5.39212">
        <ele>1269.08</ele>
        <time>2021-03-23T08:19:40Z</time>
      </trkpt>
      <trkpt lat="44.83923" lon="5.39191">
        <ele>1271</ele>
        <time>2021-03-23T08:19:55Z</time>
      </trkpt>
      <trkpt lat="44.83915" lon="5.39175">
        <ele>1272.92</ele>
        <time>2021-03-23T08:20:11Z</time>
      </trkpt>
      <trkpt lat="44.83901" lon="5.39155">
        <ele>1274.85</ele>
        <time>2021-03-23T08:20:25Z</time>
      </trkpt>
      <trkpt lat="44.83889" lon="5.39135">
        <ele>1276.29</ele>
        <time>2021-03-23T08:20:40Z</time>
      </trkpt>
      <trkpt lat="44.83878" lon="5.39115">
        <ele>1277.25</ele>
        <time>2021-03-23T08:20:53Z</time>
      </trkpt>
      <trkpt lat="44.83863" lon="5.39108">
        <ele>1278.21</ele>
        <time>2021-03-23T08:21:07Z</time>
      </trkpt>
      <trkpt lat="44.83846" lon="5.39105">
        <ele>1279.17</ele>
        <time>2021-03-23T08:21:19Z</time>
      </trkpt>
      <trkpt lat="44.83836" lon="5.39096">
        <ele>1280.61</ele>
        <time>2021-03-23T08:21:35Z</time>
      </trkpt>
      <trkpt lat="44.83836" lon="5.39096">
        <ele>1280.13</ele>
        <time>2021-03-23T08:21:58Z</time>
      </trkpt>
      <trkpt lat="44.83834" lon="5.39096">
        <ele>1279.65</ele>
        <time>2021-03-23T08:22:24Z</time>
      </trkpt>
      <trkpt lat="44.83834" lon="5.39096">
        <ele>1279.65</ele>
        <time>2021-03-23T08:22:48Z</time>
      </trkpt>
      <trkpt lat="44.83834" lon="5.39096">
        <ele>1279.17</ele>
        <time>2021-03-23T08:23:10Z</time>
      </trkpt>
      <trkpt lat="44.83833" lon="5.39096">
        <ele>1279.17</ele>
        <time>2021-03-23T08:23:38Z</time>
      </trkpt>
      <trkpt lat="44.83801" lon="5.3909">
        <ele>1280.13</ele>
        <time>2021-03-23T08:23:55Z</time>
      </trkpt>
      <trkpt lat="44.83784" lon="5.39082">
        <ele>1281.57</ele>
        <time>2021-03-23T08:24:11Z</time>
      </trkpt>
      <trkpt lat="44.83778" lon="5.3908">
        <ele>1282.06</ele>
        <time>2021-03-23T08:24:17Z</time>
      </trkpt>
      <trkpt lat="44.83772" lon="5.39077">
        <ele>1283.02</ele>
        <time>2021-03-23T08:24:35Z</time>
      </trkpt>
      <trkpt lat="44.83766" lon="5.39072">
        <ele>1283.98</ele>
        <time>2021-03-23T08:24:55Z</time>
      </trkpt>
      <trkpt lat="44.83759" lon="5.39066">
        <ele>1285.42</ele>
        <time>2021-03-23T08:25:02Z</time>
      </trkpt>
      <trkpt lat="44.83738" lon="5.39076">
        <ele>1287.34</ele>
        <time>2021-03-23T08:25:19Z</time>
      </trkpt>
      <trkpt lat="44.83723" lon="5.39078">
        <ele>1288.78</ele>
        <time>2021-03-23T08:25:36Z</time>
      </trkpt>
      <trkpt lat="44.83721" lon="5.39079">
        <ele>1289.75</ele>
        <time>2021-03-23T08:25:37Z</time>
      </trkpt>
      <trkpt lat="44.8371" lon="5.39079">
        <ele>1290.23</ele>
        <time>2021-03-23T08:25:46Z</time>
      </trkpt>
      <trkpt lat="44.83691" lon="5.39072">
        <ele>1293.59</ele>
        <time>2021-03-23T08:26:03Z</time>
      </trkpt>
      <trkpt lat="44.83681" lon="5.3907">
        <ele>1295.51</ele>
        <time>2021-03-23T08:26:14Z</time>
      </trkpt>
      <trkpt lat="44.83674" lon="5.39066">
        <ele>1295.99</ele>
        <time>2021-03-23T08:26:27Z</time>
      </trkpt>
      <trkpt lat="44.83674" lon="5.39066">
        <ele>1295.51</ele>
        <time>2021-03-23T08:26:57Z</time>
      </trkpt>
      <trkpt lat="44.83674" lon="5.39065">
        <ele>1295.99</ele>
        <time>2021-03-23T08:27:20Z</time>
      </trkpt>
      <trkpt lat="44.83672" lon="5.39061">
        <ele>1296.96</ele>
        <time>2021-03-23T08:27:44Z</time>
      </trkpt>
      <trkpt lat="44.8367" lon="5.39058">
        <ele>1296.96</ele>
        <time>2021-03-23T08:27:58Z</time>
      </trkpt>
      <trkpt lat="44.8367" lon="5.39058">
        <ele>1296.96</ele>
        <time>2021-03-23T08:28:26Z</time>
      </trkpt>
      <trkpt lat="44.83669" lon="5.39054">
        <ele>1297.92</ele>
        <time>2021-03-23T08:28:40Z</time>
      </trkpt>
      <trkpt lat="44.83657" lon="5.39041">
        <ele>1300.8</ele>
        <time>2021-03-23T08:28:54Z</time>
      </trkpt>
      <trkpt lat="44.83645" lon="5.3902">
        <ele>1302.24</ele>
        <time>2021-03-23T08:29:11Z</time>
      </trkpt>
      <trkpt lat="44.83641" lon="5.38994">
        <ele>1304.65</ele>
        <time>2021-03-23T08:29:28Z</time>
      </trkpt>
      <trkpt lat="44.83644" lon="5.38983">
        <ele>1305.61</ele>
        <time>2021-03-23T08:29:36Z</time>
      </trkpt>
      <trkpt lat="44.83649" lon="5.38977">
        <ele>1308.97</ele>
        <time>2021-03-23T08:29:50Z</time>
      </trkpt>
      <trkpt lat="44.83654" lon="5.38972">
        <ele>1307.53</ele>
        <time>2021-03-23T08:30:07Z</time>
      </trkpt>
      <trkpt lat="44.83664" lon="5.38964">
        <ele>1310.9</ele>
        <time>2021-03-23T08:30:21Z</time>
      </trkpt>
      <trkpt lat="44.83669" lon="5.38963">
        <ele>1312.34</ele>
        <time>2021-03-23T08:30:26Z</time>
      </trkpt>
      <trkpt lat="44.83672" lon="5.38954">
        <ele>1313.78</ele>
        <time>2021-03-23T08:30:42Z</time>
      </trkpt>
      <trkpt lat="44.83673" lon="5.38949">
        <ele>1314.74</ele>
        <time>2021-03-23T08:30:59Z</time>
      </trkpt>
      <trkpt lat="44.83673" lon="5.38949">
        <ele>1314.74</ele>
        <time>2021-03-23T08:31:26Z</time>
      </trkpt>
      <trkpt lat="44.83674" lon="5.38946">
        <ele>1315.22</ele>
        <time>2021-03-23T08:31:49Z</time>
      </trkpt>
      <trkpt lat="44.83662" lon="5.38909">
        <ele>1316.66</ele>
        <time>2021-03-23T08:32:05Z</time>
      </trkpt>
      <trkpt lat="44.83648" lon="5.38883">
        <ele>1319.55</ele>
        <time>2021-03-23T08:32:21Z</time>
      </trkpt>
      <trkpt lat="44.83633" lon="5.38873">
        <ele>1321.47</ele>
        <time>2021-03-23T08:32:38Z</time>
      </trkpt>
      <trkpt lat="44.83609" lon="5.38856">
        <ele>1323.87</ele>
        <time>2021-03-23T08:32:57Z</time>
      </trkpt>
      <trkpt lat="44.83605" lon="5.38855">
        <ele>1322.91</ele>
        <time>2021-03-23T08:33:01Z</time>
      </trkpt>
      <trkpt lat="44.8359" lon="5.38848">
        <ele>1325.8</ele>
        <time>2021-03-23T08:33:15Z</time>
      </trkpt>
      <trkpt lat="44.83577" lon="5.38843">
        <ele>1327.24</ele>
        <time>2021-03-23T08:33:28Z</time>
      </trkpt>
      <trkpt lat="44.83561" lon="5.38831">
        <ele>1328.68</ele>
        <time>2021-03-23T08:33:44Z</time>
      </trkpt>
      <trkpt lat="44.83558" lon="5.38828">
        <ele>1330.12</ele>
        <time>2021-03-23T08:33:47Z</time>
      </trkpt>
      <trkpt lat="44.83544" lon="5.38819">
        <ele>1331.08</ele>
        <time>2021-03-23T08:34:01Z</time>
      </trkpt>
      <trkpt lat="44.8353" lon="5.38805">
        <ele>1333.01</ele>
        <time>2021-03-23T08:34:18Z</time>
      </trkpt>
      <trkpt lat="44.83513" lon="5.38794">
        <ele>1333.49</ele>
        <time>2021-03-23T08:34:34Z</time>
      </trkpt>
      <trkpt lat="44.83504" lon="5.38792">
        <ele>1334.93</ele>
        <time>2021-03-23T08:34:41Z</time>
      </trkpt>
      <trkpt lat="44.83493" lon="5.38784">
        <ele>1335.89</ele>
        <time>2021-03-23T08:34:54Z</time>
      </trkpt>
      <trkpt lat="44.8349" lon="5.38781">
        <ele>1336.85</ele>
        <time>2021-03-23T08:34:57Z</time>
      </trkpt>
      <trkpt lat="44.83481" lon="5.38759">
        <ele>1337.33</ele>
        <time>2021-03-23T08:35:13Z</time>
      </trkpt>
      <trkpt lat="44.83499" lon="5.38754">
        <ele>1336.85</ele>
        <time>2021-03-23T08:35:27Z</time>
      </trkpt>
      <trkpt lat="44.83516" lon="5.38743">
        <ele>1339.73</ele>
        <time>2021-03-23T08:35:44Z</time>
      </trkpt>
      <trkpt lat="44.83529" lon="5.38741">
        <ele>1342.62</ele>
        <time>2021-03-23T08:36:02Z</time>
      </trkpt>
      <trkpt lat="44.83542" lon="5.38739">
        <ele>1343.1</ele>
        <time>2021-03-23T08:36:17Z</time>
      </trkpt>
      <trkpt lat="44.83571" lon="5.38743">
        <ele>1343.58</ele>
        <time>2021-03-23T08:36:36Z</time>
      </trkpt>
      <trkpt lat="44.83586" lon="5.3875">
        <ele>1345.98</ele>
        <time>2021-03-23T08:36:57Z</time>
      </trkpt>
      <trkpt lat="44.83604" lon="5.3875">
        <ele>1346.46</ele>
        <time>2021-03-23T08:37:14Z</time>
      </trkpt>
      <trkpt lat="44.8361" lon="5.3874">
        <ele>1345.98</ele>
        <time>2021-03-23T08:37:22Z</time>
      </trkpt>
      <trkpt lat="44.83616" lon="5.38725">
        <ele>1346.46</ele>
        <time>2021-03-23T08:37:32Z</time>
      </trkpt>
      <trkpt lat="44.83617" lon="5.38719">
        <ele>1347.43</ele>
        <time>2021-03-23T08:37:37Z</time>
      </trkpt>
      <trkpt lat="44.83618" lon="5.38703">
        <ele>1347.91</ele>
        <time>2021-03-23T08:37:51Z</time>
      </trkpt>
      <trkpt lat="44.83624" lon="5.38703">
        <ele>1349.83</ele>
        <time>2021-03-23T08:38:01Z</time>
      </trkpt>
      <trkpt lat="44.83622" lon="5.38699">
        <ele>1348.87</ele>
        <time>2021-03-23T08:38:10Z</time>
      </trkpt>
      <trkpt lat="44.83618" lon="5.387">
        <ele>1348.87</ele>
        <time>2021-03-23T08:38:14Z</time>
      </trkpt>
      <trkpt lat="44.83614" lon="5.387">
        <ele>1351.27</ele>
        <time>2021-03-23T08:38:19Z</time>
      </trkpt>
      <trkpt lat="44.83605" lon="5.38701">
        <ele>1350.31</ele>
        <time>2021-03-23T08:38:28Z</time>
      </trkpt>
      <trkpt lat="44.83593" lon="5.38701">
        <ele>1349.83</ele>
        <time>2021-03-23T08:38:40Z</time>
      </trkpt>
      <trkpt lat="44.8359" lon="5.38699">
        <ele>1350.31</ele>
        <time>2021-03-23T08:38:43Z</time>
      </trkpt>
      <trkpt lat="44.83587" lon="5.38699">
        <ele>1349.83</ele>
        <time>2021-03-23T08:38:45Z</time>
      </trkpt>
      <trkpt lat="44.83579" lon="5.38699">
        <ele>1350.79</ele>
        <time>2021-03-23T08:38:55Z</time>
      </trkpt>
      <trkpt lat="44.83576" lon="5.38697">
        <ele>1350.79</ele>
        <time>2021-03-23T08:38:57Z</time>
      </trkpt>
      <trkpt lat="44.8357" lon="5.38696">
        <ele>1351.27</ele>
        <time>2021-03-23T08:39:02Z</time>
      </trkpt>
      <trkpt lat="44.83562" lon="5.38695">
        <ele>1353.19</ele>
        <time>2021-03-23T08:39:10Z</time>
      </trkpt>
      <trkpt lat="44.83551" lon="5.38691">
        <ele>1353.19</ele>
        <time>2021-03-23T08:39:18Z</time>
      </trkpt>
      <trkpt lat="44.83546" lon="5.38688">
        <ele>1353.67</ele>
        <time>2021-03-23T08:39:22Z</time>
      </trkpt>
      <trkpt lat="44.83541" lon="5.38685">
        <ele>1354.15</ele>
        <time>2021-03-23T08:39:26Z</time>
      </trkpt>
      <trkpt lat="44.83535" lon="5.38682">
        <ele>1355.12</ele>
        <time>2021-03-23T08:39:33Z</time>
      </trkpt>
      <trkpt lat="44.83532" lon="5.38679">
        <ele>1355.6</ele>
        <time>2021-03-23T08:39:45Z</time>
      </trkpt>
      <trkpt lat="44.83532" lon="5.38679">
        <ele>1354.63</ele>
        <time>2021-03-23T08:40:06Z</time>
      </trkpt>
      <trkpt lat="44.83531" lon="5.38679">
        <ele>1355.12</ele>
        <time>2021-03-23T08:40:22Z</time>
      </trkpt>
      <trkpt lat="44.83531" lon="5.38679">
        <ele>1353.67</ele>
        <time>2021-03-23T08:40:27Z</time>
      </trkpt>
      <trkpt lat="44.83531" lon="5.38679">
        <ele>1355.12</ele>
        <time>2021-03-23T08:40:55Z</time>
      </trkpt>
      <trkpt lat="44.8353" lon="5.38678">
        <ele>1355.6</ele>
        <time>2021-03-23T08:41:21Z</time>
      </trkpt>
      <trkpt lat="44.83525" lon="5.38674">
        <ele>1357.04</ele>
        <time>2021-03-23T08:41:35Z</time>
      </trkpt>
      <trkpt lat="44.83516" lon="5.38661">
        <ele>1358</ele>
        <time>2021-03-23T08:41:49Z</time>
      </trkpt>
      <trkpt lat="44.83505" lon="5.38653">
        <ele>1358</ele>
        <time>2021-03-23T08:42:04Z</time>
      </trkpt>
      <trkpt lat="44.83494" lon="5.38648">
        <ele>1357.52</ele>
        <time>2021-03-23T08:42:20Z</time>
      </trkpt>
      <trkpt lat="44.83487" lon="5.38645">
        <ele>1359.92</ele>
        <time>2021-03-23T08:42:37Z</time>
      </trkpt>
      <trkpt lat="44.83472" lon="5.38636">
        <ele>1356.56</ele>
        <time>2021-03-23T08:42:53Z</time>
      </trkpt>
      <trkpt lat="44.83466" lon="5.38636">
        <ele>1354.63</ele>
        <time>2021-03-23T08:43:09Z</time>
      </trkpt>
      <trkpt lat="44.83448" lon="5.38639">
        <ele>1356.56</ele>
        <time>2021-03-23T08:43:19Z</time>
      </trkpt>
      <trkpt lat="44.83426" lon="5.38643">
        <ele>1356.08</ele>
        <time>2021-03-23T08:43:33Z</time>
      </trkpt>
      <trkpt lat="44.83417" lon="5.38652">
        <ele>1354.15</ele>
        <time>2021-03-23T08:43:47Z</time>
      </trkpt>
      <trkpt lat="44.8341" lon="5.38656">
        <ele>1354.15</ele>
        <time>2021-03-23T08:43:57Z</time>
      </trkpt>
      <trkpt lat="44.834" lon="5.38662">
        <ele>1351.75</ele>
        <time>2021-03-23T08:44:09Z</time>
      </trkpt>
      <trkpt lat="44.83385" lon="5.38672">
        <ele>1349.35</ele>
        <time>2021-03-23T08:44:26Z</time>
      </trkpt>
      <trkpt lat="44.83375" lon="5.38677">
        <ele>1347.43</ele>
        <time>2021-03-23T08:44:37Z</time>
      </trkpt>
      <trkpt lat="44.83361" lon="5.38682">
        <ele>1347.43</ele>
        <time>2021-03-23T08:44:52Z</time>
      </trkpt>
      <trkpt lat="44.83346" lon="5.38685">
        <ele>1347.91</ele>
        <time>2021-03-23T08:45:08Z</time>
      </trkpt>
      <trkpt lat="44.83341" lon="5.38688">
        <ele>1348.87</ele>
        <time>2021-03-23T08:45:20Z</time>
      </trkpt>
      <trkpt lat="44.83326" lon="5.38695">
        <ele>1347.91</ele>
        <time>2021-03-23T08:45:34Z</time>
      </trkpt>
      <trkpt lat="44.83321" lon="5.38697">
        <ele>1348.39</ele>
        <time>2021-03-23T08:45:47Z</time>
      </trkpt>
      <trkpt lat="44.83316" lon="5.38699">
        <ele>1349.35</ele>
        <time>2021-03-23T08:45:58Z</time>
      </trkpt>
      <trkpt lat="44.83299" lon="5.38702">
        <ele>1350.31</ele>
        <time>2021-03-23T08:46:11Z</time>
      </trkpt>
      <trkpt lat="44.83286" lon="5.38701">
        <ele>1350.31</ele>
        <time>2021-03-23T08:46:24Z</time>
      </trkpt>
      <trkpt lat="44.83278" lon="5.387">
        <ele>1350.31</ele>
        <time>2021-03-23T08:46:38Z</time>
      </trkpt>
      <trkpt lat="44.83269" lon="5.38696">
        <ele>1349.35</ele>
        <time>2021-03-23T08:46:59Z</time>
      </trkpt>
      <trkpt lat="44.83267" lon="5.38695">
        <ele>1348.87</ele>
        <time>2021-03-23T08:47:15Z</time>
      </trkpt>
      <trkpt lat="44.83246" lon="5.38687">
        <ele>1351.75</ele>
        <time>2021-03-23T08:47:30Z</time>
      </trkpt>
      <trkpt lat="44.83239" lon="5.38683">
        <ele>1351.75</ele>
        <time>2021-03-23T08:47:44Z</time>
      </trkpt>
      <trkpt lat="44.8323" lon="5.3868">
        <ele>1353.67</ele>
        <time>2021-03-23T08:48:01Z</time>
      </trkpt>
      <trkpt lat="44.8323" lon="5.3868">
        <ele>1354.63</ele>
        <time>2021-03-23T08:48:17Z</time>
      </trkpt>
      <trkpt lat="44.83229" lon="5.38679">
        <ele>1355.12</ele>
        <time>2021-03-23T08:48:45Z</time>
      </trkpt>
      <trkpt lat="44.83229" lon="5.38679">
        <ele>1355.12</ele>
        <time>2021-03-23T08:49:13Z</time>
      </trkpt>
      <trkpt lat="44.83229" lon="5.38679">
        <ele>1355.12</ele>
        <time>2021-03-23T08:49:37Z</time>
      </trkpt>
      <trkpt lat="44.83229" lon="5.38679">
        <ele>1358.48</ele>
        <time>2021-03-23T08:49:43Z</time>
      </trkpt>
      <trkpt lat="44.83229" lon="5.38679">
        <ele>1356.56</ele>
        <time>2021-03-23T08:49:44Z</time>
      </trkpt>
      <trkpt lat="44.83229" lon="5.38679">
        <ele>1352.71</ele>
        <time>2021-03-23T08:50:05Z</time>
      </trkpt>
      <trkpt lat="44.83229" lon="5.38679">
        <ele>1355.6</ele>
        <time>2021-03-23T08:50:07Z</time>
      </trkpt>
      <trkpt lat="44.83229" lon="5.38677">
        <ele>1359.92</ele>
        <time>2021-03-23T08:50:27Z</time>
      </trkpt>
      <trkpt lat="44.83229" lon="5.38677">
        <ele>1356.08</ele>
        <time>2021-03-23T08:50:28Z</time>
      </trkpt>
      <trkpt lat="44.83229" lon="5.38677">
        <ele>1356.08</ele>
        <time>2021-03-23T08:50:56Z</time>
      </trkpt>
      <trkpt lat="44.83229" lon="5.38677">
        <ele>1355.6</ele>
        <time>2021-03-23T08:51:23Z</time>
      </trkpt>
      <trkpt lat="44.83228" lon="5.38676">
        <ele>1356.08</ele>
        <time>2021-03-23T08:51:55Z</time>
      </trkpt>
      <trkpt lat="44.83228" lon="5.38676">
        <ele>1356.56</ele>
        <time>2021-03-23T08:52:29Z</time>
      </trkpt>
      <trkpt lat="44.83227" lon="5.38676">
        <ele>1356.56</ele>
        <time>2021-03-23T08:52:50Z</time>
      </trkpt>
      <trkpt lat="44.83227" lon="5.38676">
        <ele>1356.56</ele>
        <time>2021-03-23T08:52:57Z</time>
      </trkpt>
      <trkpt lat="44.83227" lon="5.38676">
        <ele>1356.56</ele>
        <time>2021-03-23T08:53:23Z</time>
      </trkpt>
      <trkpt lat="44.83227" lon="5.38676">
        <ele>1356.56</ele>
        <time>2021-03-23T08:53:47Z</time>
      </trkpt>
      <trkpt lat="44.83227" lon="5.38676">
        <ele>1357.52</ele>
        <time>2021-03-23T08:54:14Z</time>
      </trkpt>
      <trkpt lat="44.83222" lon="5.38673">
        <ele>1358</ele>
        <time>2021-03-23T08:54:39Z</time>
      </trkpt>
      <trkpt lat="44.83212" lon="5.38669">
        <ele>1358.96</ele>
        <time>2021-03-23T08:54:53Z</time>
      </trkpt>
      <trkpt lat="44.83207" lon="5.38662">
        <ele>1360.4</ele>
        <time>2021-03-23T08:55:08Z</time>
      </trkpt>
      <trkpt lat="44.832" lon="5.38657">
        <ele>1362.33</ele>
        <time>2021-03-23T08:55:22Z</time>
      </trkpt>
      <trkpt lat="44.83187" lon="5.38654">
        <ele>1362.81</ele>
        <time>2021-03-23T08:55:38Z</time>
      </trkpt>
      <trkpt lat="44.83168" lon="5.38651">
        <ele>1366.17</ele>
        <time>2021-03-23T08:55:55Z</time>
      </trkpt>
      <trkpt lat="44.83158" lon="5.3865">
        <ele>1367.13</ele>
        <time>2021-03-23T08:56:14Z</time>
      </trkpt>
      <trkpt lat="44.83148" lon="5.38649">
        <ele>1370.02</ele>
        <time>2021-03-23T08:56:30Z</time>
      </trkpt>
      <trkpt lat="44.83141" lon="5.38645">
        <ele>1370.98</ele>
        <time>2021-03-23T08:56:48Z</time>
      </trkpt>
      <trkpt lat="44.83125" lon="5.38638">
        <ele>1373.86</ele>
        <time>2021-03-23T08:57:03Z</time>
      </trkpt>
      <trkpt lat="44.83116" lon="5.38638">
        <ele>1376.26</ele>
        <time>2021-03-23T08:57:17Z</time>
      </trkpt>
      <trkpt lat="44.83108" lon="5.38636">
        <ele>1377.23</ele>
        <time>2021-03-23T08:57:29Z</time>
      </trkpt>
      <trkpt lat="44.83104" lon="5.38634">
        <ele>1377.23</ele>
        <time>2021-03-23T08:57:41Z</time>
      </trkpt>
      <trkpt lat="44.83102" lon="5.38634">
        <ele>1380.59</ele>
        <time>2021-03-23T08:57:47Z</time>
      </trkpt>
      <trkpt lat="44.83099" lon="5.38634">
        <ele>1380.59</ele>
        <time>2021-03-23T08:57:54Z</time>
      </trkpt>
      <trkpt lat="44.83093" lon="5.38632">
        <ele>1382.51</ele>
        <time>2021-03-23T08:58:04Z</time>
      </trkpt>
      <trkpt lat="44.83087" lon="5.38633">
        <ele>1384.44</ele>
        <time>2021-03-23T08:58:14Z</time>
      </trkpt>
      <trkpt lat="44.83079" lon="5.38632">
        <ele>1386.36</ele>
        <time>2021-03-23T08:58:27Z</time>
      </trkpt>
      <trkpt lat="44.83072" lon="5.38629">
        <ele>1387.8</ele>
        <time>2021-03-23T08:58:38Z</time>
      </trkpt>
      <trkpt lat="44.83064" lon="5.38622">
        <ele>1390.68</ele>
        <time>2021-03-23T08:58:48Z</time>
      </trkpt>
      <trkpt lat="44.83058" lon="5.38614">
        <ele>1393.57</ele>
        <time>2021-03-23T08:58:58Z</time>
      </trkpt>
      <trkpt lat="44.83057" lon="5.38613">
        <ele>1393.57</ele>
        <time>2021-03-23T08:59:01Z</time>
      </trkpt>
      <trkpt lat="44.83049" lon="5.38608">
        <ele>1396.45</ele>
        <time>2021-03-23T08:59:12Z</time>
      </trkpt>
      <trkpt lat="44.83043" lon="5.38603">
        <ele>1400.3</ele>
        <time>2021-03-23T08:59:23Z</time>
      </trkpt>
      <trkpt lat="44.83037" lon="5.38599">
        <ele>1402.22</ele>
        <time>2021-03-23T08:59:36Z</time>
      </trkpt>
      <trkpt lat="44.83034" lon="5.38597">
        <ele>1403.18</ele>
        <time>2021-03-23T08:59:39Z</time>
      </trkpt>
      <trkpt lat="44.83032" lon="5.38595">
        <ele>1404.62</ele>
        <time>2021-03-23T08:59:42Z</time>
      </trkpt>
      <trkpt lat="44.83027" lon="5.3859">
        <ele>1406.07</ele>
        <time>2021-03-23T08:59:52Z</time>
      </trkpt>
      <trkpt lat="44.83024" lon="5.38588">
        <ele>1408.47</ele>
        <time>2021-03-23T08:59:59Z</time>
      </trkpt>
      <trkpt lat="44.83016" lon="5.38587">
        <ele>1411.35</ele>
        <time>2021-03-23T09:00:09Z</time>
      </trkpt>
      <trkpt lat="44.83016" lon="5.38587">
        <ele>1410.87</ele>
        <time>2021-03-23T09:00:29Z</time>
      </trkpt>
      <trkpt lat="44.83016" lon="5.38587">
        <ele>1410.87</ele>
        <time>2021-03-23T09:00:59Z</time>
      </trkpt>
      <trkpt lat="44.83016" lon="5.38587">
        <ele>1410.39</ele>
        <time>2021-03-23T09:01:23Z</time>
      </trkpt>
      <trkpt lat="44.83013" lon="5.38585">
        <ele>1411.83</ele>
        <time>2021-03-23T09:01:31Z</time>
      </trkpt>
      <trkpt lat="44.83002" lon="5.38588">
        <ele>1414.24</ele>
        <time>2021-03-23T09:01:44Z</time>
      </trkpt>
      <trkpt lat="44.82994" lon="5.38589">
        <ele>1415.68</ele>
        <time>2021-03-23T09:01:55Z</time>
      </trkpt>
      <trkpt lat="44.8299" lon="5.38584">
        <ele>1419.04</ele>
        <time>2021-03-23T09:02:05Z</time>
      </trkpt>
      <trkpt lat="44.82987" lon="5.38581">
        <ele>1419.52</ele>
        <time>2021-03-23T09:02:10Z</time>
      </trkpt>
      <trkpt lat="44.8298" lon="5.38573">
        <ele>1422.89</ele>
        <time>2021-03-23T09:02:21Z</time>
      </trkpt>
      <trkpt lat="44.82974" lon="5.38565">
        <ele>1424.81</ele>
        <time>2021-03-23T09:02:32Z</time>
      </trkpt>
      <trkpt lat="44.82971" lon="5.38563">
        <ele>1426.73</ele>
        <time>2021-03-23T09:02:37Z</time>
      </trkpt>
      <trkpt lat="44.82966" lon="5.38553">
        <ele>1429.62</ele>
        <time>2021-03-23T09:02:49Z</time>
      </trkpt>
      <trkpt lat="44.82963" lon="5.38549">
        <ele>1431.06</ele>
        <time>2021-03-23T09:02:59Z</time>
      </trkpt>
      <trkpt lat="44.82963" lon="5.38549">
        <ele>1431.06</ele>
        <time>2021-03-23T09:03:15Z</time>
      </trkpt>
      <trkpt lat="44.82963" lon="5.38549">
        <ele>1431.54</ele>
        <time>2021-03-23T09:03:38Z</time>
      </trkpt>
      <trkpt lat="44.82963" lon="5.38549">
        <ele>1431.54</ele>
        <time>2021-03-23T09:03:59Z</time>
      </trkpt>
      <trkpt lat="44.82963" lon="5.38549">
        <ele>1431.06</ele>
        <time>2021-03-23T09:04:18Z</time>
      </trkpt>
      <trkpt lat="44.82963" lon="5.38549">
        <ele>1431.06</ele>
        <time>2021-03-23T09:04:42Z</time>
      </trkpt>
      <trkpt lat="44.82959" lon="5.38544">
        <ele>1432.02</ele>
        <time>2021-03-23T09:04:54Z</time>
      </trkpt>
      <trkpt lat="44.82957" lon="5.38543">
        <ele>1432.98</ele>
        <time>2021-03-23T09:05:07Z</time>
      </trkpt>
      <trkpt lat="44.82954" lon="5.38538">
        <ele>1433.46</ele>
        <time>2021-03-23T09:05:28Z</time>
      </trkpt>
      <trkpt lat="44.8295" lon="5.38531">
        <ele>1435.87</ele>
        <time>2021-03-23T09:05:39Z</time>
      </trkpt>
      <trkpt lat="44.82947" lon="5.38523">
        <ele>1439.23</ele>
        <time>2021-03-23T09:05:48Z</time>
      </trkpt>
      <trkpt lat="44.82943" lon="5.38514">
        <ele>1441.63</ele>
        <time>2021-03-23T09:06:00Z</time>
      </trkpt>
      <trkpt lat="44.82939" lon="5.38508">
        <ele>1444.52</ele>
        <time>2021-03-23T09:06:08Z</time>
      </trkpt>
      <trkpt lat="44.82934" lon="5.385">
        <ele>1447.4</ele>
        <time>2021-03-23T09:06:20Z</time>
      </trkpt>
      <trkpt lat="44.82932" lon="5.3849">
        <ele>1450.29</ele>
        <time>2021-03-23T09:06:32Z</time>
      </trkpt>
      <trkpt lat="44.82931" lon="5.38487">
        <ele>1451.25</ele>
        <time>2021-03-23T09:06:36Z</time>
      </trkpt>
      <trkpt lat="44.82929" lon="5.3848">
        <ele>1453.65</ele>
        <time>2021-03-23T09:06:47Z</time>
      </trkpt>
      <trkpt lat="44.82928" lon="5.3847">
        <ele>1455.57</ele>
        <time>2021-03-23T09:06:57Z</time>
      </trkpt>
      <trkpt lat="44.82928" lon="5.38468">
        <ele>1456.05</ele>
        <time>2021-03-23T09:06:59Z</time>
      </trkpt>
      <trkpt lat="44.82931" lon="5.38456">
        <ele>1458.46</ele>
        <time>2021-03-23T09:07:12Z</time>
      </trkpt>
      <trkpt lat="44.82929" lon="5.3845">
        <ele>1459.42</ele>
        <time>2021-03-23T09:07:23Z</time>
      </trkpt>
      <trkpt lat="44.82932" lon="5.38442">
        <ele>1461.82</ele>
        <time>2021-03-23T09:07:34Z</time>
      </trkpt>
      <trkpt lat="44.82931" lon="5.38433">
        <ele>1465.19</ele>
        <time>2021-03-23T09:07:45Z</time>
      </trkpt>
      <trkpt lat="44.8293" lon="5.3843">
        <ele>1466.15</ele>
        <time>2021-03-23T09:07:49Z</time>
      </trkpt>
      <trkpt lat="44.82927" lon="5.3842">
        <ele>1468.07</ele>
        <time>2021-03-23T09:08:01Z</time>
      </trkpt>
      <trkpt lat="44.82924" lon="5.38414">
        <ele>1470.95</ele>
        <time>2021-03-23T09:08:13Z</time>
      </trkpt>
      <trkpt lat="44.82921" lon="5.38409">
        <ele>1472.88</ele>
        <time>2021-03-23T09:08:23Z</time>
      </trkpt>
      <trkpt lat="44.82919" lon="5.38399">
        <ele>1475.28</ele>
        <time>2021-03-23T09:08:34Z</time>
      </trkpt>
      <trkpt lat="44.82918" lon="5.3839">
        <ele>1478.65</ele>
        <time>2021-03-23T09:08:44Z</time>
      </trkpt>
      <trkpt lat="44.82918" lon="5.38378">
        <ele>1480.57</ele>
        <time>2021-03-23T09:08:56Z</time>
      </trkpt>
      <trkpt lat="44.82916" lon="5.38368">
        <ele>1483.45</ele>
        <time>2021-03-23T09:09:08Z</time>
      </trkpt>
      <trkpt lat="44.82916" lon="5.38366">
        <ele>1483.45</ele>
        <time>2021-03-23T09:09:10Z</time>
      </trkpt>
      <trkpt lat="44.82917" lon="5.38355">
        <ele>1485.85</ele>
        <time>2021-03-23T09:09:21Z</time>
      </trkpt>
      <trkpt lat="44.82917" lon="5.3835">
        <ele>1487.3</ele>
        <time>2021-03-23T09:09:32Z</time>
      </trkpt>
      <trkpt lat="44.82919" lon="5.38347">
        <ele>1487.3</ele>
        <time>2021-03-23T09:09:35Z</time>
      </trkpt>
      <trkpt lat="44.82918" lon="5.38333">
        <ele>1489.7</ele>
        <time>2021-03-23T09:09:46Z</time>
      </trkpt>
      <trkpt lat="44.82916" lon="5.38325">
        <ele>1491.62</ele>
        <time>2021-03-23T09:09:59Z</time>
      </trkpt>
      <trkpt lat="44.82916" lon="5.38323">
        <ele>1492.1</ele>
        <time>2021-03-23T09:10:23Z</time>
      </trkpt>
      <trkpt lat="44.82916" lon="5.38322">
        <ele>1491.62</ele>
        <time>2021-03-23T09:10:41Z</time>
      </trkpt>
      <trkpt lat="44.82915" lon="5.38324">
        <ele>1492.1</ele>
        <time>2021-03-23T09:10:43Z</time>
      </trkpt>
      <trkpt lat="44.82913" lon="5.38325">
        <ele>1491.62</ele>
        <time>2021-03-23T09:10:57Z</time>
      </trkpt>
      <trkpt lat="44.82913" lon="5.38325">
        <ele>1491.62</ele>
        <time>2021-03-23T09:11:20Z</time>
      </trkpt>
      <trkpt lat="44.82913" lon="5.38325">
        <ele>1491.14</ele>
        <time>2021-03-23T09:11:52Z</time>
      </trkpt>
      <trkpt lat="44.82913" lon="5.38326">
        <ele>1491.14</ele>
        <time>2021-03-23T09:12:12Z</time>
      </trkpt>
      <trkpt lat="44.82913" lon="5.38326">
        <ele>1490.66</ele>
        <time>2021-03-23T09:12:43Z</time>
      </trkpt>
      <trkpt lat="44.82913" lon="5.38327">
        <ele>1492.1</ele>
        <time>2021-03-23T09:13:13Z</time>
      </trkpt>
      <trkpt lat="44.82916" lon="5.38328">
        <ele>1490.66</ele>
        <time>2021-03-23T09:13:18Z</time>
      </trkpt>
      <trkpt lat="44.82926" lon="5.38338">
        <ele>1487.3</ele>
        <time>2021-03-23T09:13:29Z</time>
      </trkpt>
      <trkpt lat="44.82932" lon="5.38339">
        <ele>1485.85</ele>
        <time>2021-03-23T09:13:38Z</time>
      </trkpt>
      <trkpt lat="44.82937" lon="5.38333">
        <ele>1485.37</ele>
        <time>2021-03-23T09:13:44Z</time>
      </trkpt>
      <trkpt lat="44.82948" lon="5.38312">
        <ele>1486.82</ele>
        <time>2021-03-23T09:14:00Z</time>
      </trkpt>
      <trkpt lat="44.82954" lon="5.38303">
        <ele>1485.85</ele>
        <time>2021-03-23T09:14:10Z</time>
      </trkpt>
      <trkpt lat="44.8296" lon="5.38302">
        <ele>1485.37</ele>
        <time>2021-03-23T09:14:14Z</time>
      </trkpt>
      <trkpt lat="44.82977" lon="5.38292">
        <ele>1482.49</ele>
        <time>2021-03-23T09:14:28Z</time>
      </trkpt>
      <trkpt lat="44.82985" lon="5.38282">
        <ele>1482.49</ele>
        <time>2021-03-23T09:14:36Z</time>
      </trkpt>
      <trkpt lat="44.82983" lon="5.38285">
        <ele>1482.49</ele>
        <time>2021-03-23T09:14:50Z</time>
      </trkpt>
      <trkpt lat="44.82986" lon="5.38278">
        <ele>1482.97</ele>
        <time>2021-03-23T09:14:56Z</time>
      </trkpt>
      <trkpt lat="44.82991" lon="5.38264">
        <ele>1484.41</ele>
        <time>2021-03-23T09:15:04Z</time>
      </trkpt>
      <trkpt lat="44.82996" lon="5.3825">
        <ele>1486.34</ele>
        <time>2021-03-23T09:15:13Z</time>
      </trkpt>
      <trkpt lat="44.82999" lon="5.3824">
        <ele>1488.26</ele>
        <time>2021-03-23T09:15:20Z</time>
      </trkpt>
      <trkpt lat="44.83008" lon="5.38224">
        <ele>1488.74</ele>
        <time>2021-03-23T09:15:31Z</time>
      </trkpt>
      <trkpt lat="44.83011" lon="5.3822">
        <ele>1488.74</ele>
        <time>2021-03-23T09:15:35Z</time>
      </trkpt>
      <trkpt lat="44.83021" lon="5.38207">
        <ele>1487.78</ele>
        <time>2021-03-23T09:15:45Z</time>
      </trkpt>
      <trkpt lat="44.83031" lon="5.38192">
        <ele>1486.82</ele>
        <time>2021-03-23T09:15:56Z</time>
      </trkpt>
      <trkpt lat="44.83037" lon="5.38183">
        <ele>1486.34</ele>
        <time>2021-03-23T09:16:02Z</time>
      </trkpt>
      <trkpt lat="44.83034" lon="5.38181">
        <ele>1486.34</ele>
        <time>2021-03-23T09:16:05Z</time>
      </trkpt>
      <trkpt lat="44.83033" lon="5.38178">
        <ele>1486.34</ele>
        <time>2021-03-23T09:16:10Z</time>
      </trkpt>
      <trkpt lat="44.83041" lon="5.38168">
        <ele>1485.37</ele>
        <time>2021-03-23T09:16:19Z</time>
      </trkpt>
      <trkpt lat="44.83044" lon="5.38165">
        <ele>1484.41</ele>
        <time>2021-03-23T09:16:21Z</time>
      </trkpt>
      <trkpt lat="44.83054" lon="5.38156">
        <ele>1483.93</ele>
        <time>2021-03-23T09:16:32Z</time>
      </trkpt>
      <trkpt lat="44.83064" lon="5.38153">
        <ele>1483.45</ele>
        <time>2021-03-23T09:16:39Z</time>
      </trkpt>
      <trkpt lat="44.83065" lon="5.38154">
        <ele>1483.45</ele>
        <time>2021-03-23T09:16:55Z</time>
      </trkpt>
      <trkpt lat="44.83065" lon="5.38154">
        <ele>1482.97</ele>
        <time>2021-03-23T09:17:20Z</time>
      </trkpt>
      <trkpt lat="44.83065" lon="5.38154">
        <ele>1482.97</ele>
        <time>2021-03-23T09:17:42Z</time>
      </trkpt>
      <trkpt lat="44.83068" lon="5.38154">
        <ele>1482.49</ele>
        <time>2021-03-23T09:17:48Z</time>
      </trkpt>
      <trkpt lat="44.83076" lon="5.38147">
        <ele>1482.97</ele>
        <time>2021-03-23T09:17:55Z</time>
      </trkpt>
      <trkpt lat="44.83082" lon="5.38142">
        <ele>1482.01</ele>
        <time>2021-03-23T09:18:01Z</time>
      </trkpt>
      <trkpt lat="44.83085" lon="5.38131">
        <ele>1482.01</ele>
        <time>2021-03-23T09:18:07Z</time>
      </trkpt>
      <trkpt lat="44.83086" lon="5.38125">
        <ele>1482.01</ele>
        <time>2021-03-23T09:18:11Z</time>
      </trkpt>
      <trkpt lat="44.83086" lon="5.38122">
        <ele>1482.49</ele>
        <time>2021-03-23T09:18:13Z</time>
      </trkpt>
      <trkpt lat="44.83088" lon="5.38115">
        <ele>1483.45</ele>
        <time>2021-03-23T09:18:17Z</time>
      </trkpt>
      <trkpt lat="44.83092" lon="5.38097">
        <ele>1483.93</ele>
        <time>2021-03-23T09:18:28Z</time>
      </trkpt>
      <trkpt lat="44.83097" lon="5.38079">
        <ele>1485.85</ele>
        <time>2021-03-23T09:18:41Z</time>
      </trkpt>
      <trkpt lat="44.83102" lon="5.38065">
        <ele>1487.3</ele>
        <time>2021-03-23T09:18:51Z</time>
      </trkpt>
      <trkpt lat="44.83105" lon="5.38057">
        <ele>1487.78</ele>
        <time>2021-03-23T09:18:57Z</time>
      </trkpt>
      <trkpt lat="44.83108" lon="5.38047">
        <ele>1488.74</ele>
        <time>2021-03-23T09:19:04Z</time>
      </trkpt>
      <trkpt lat="44.8311" lon="5.38042">
        <ele>1488.74</ele>
        <time>2021-03-23T09:19:08Z</time>
      </trkpt>
      <trkpt lat="44.83112" lon="5.38036">
        <ele>1489.22</ele>
        <time>2021-03-23T09:19:13Z</time>
      </trkpt>
      <trkpt lat="44.83119" lon="5.38014">
        <ele>1491.14</ele>
        <time>2021-03-23T09:19:29Z</time>
      </trkpt>
      <trkpt lat="44.83123" lon="5.37996">
        <ele>1492.58</ele>
        <time>2021-03-23T09:19:43Z</time>
      </trkpt>
      <trkpt lat="44.83123" lon="5.37995">
        <ele>1493.06</ele>
        <time>2021-03-23T09:19:44Z</time>
      </trkpt>
      <trkpt lat="44.83124" lon="5.37988">
        <ele>1493.06</ele>
        <time>2021-03-23T09:19:49Z</time>
      </trkpt>
      <trkpt lat="44.83125" lon="5.37975">
        <ele>1494.99</ele>
        <time>2021-03-23T09:19:59Z</time>
      </trkpt>
      <trkpt lat="44.83125" lon="5.37969">
        <ele>1494.99</ele>
        <time>2021-03-23T09:20:03Z</time>
      </trkpt>
      <trkpt lat="44.83126" lon="5.37964">
        <ele>1495.47</ele>
        <time>2021-03-23T09:20:06Z</time>
      </trkpt>
      <trkpt lat="44.83126" lon="5.37961">
        <ele>1495.47</ele>
        <time>2021-03-23T09:20:08Z</time>
      </trkpt>
      <trkpt lat="44.83128" lon="5.37955">
        <ele>1496.43</ele>
        <time>2021-03-23T09:20:12Z</time>
      </trkpt>
      <trkpt lat="44.83128" lon="5.37948">
        <ele>1496.91</ele>
        <time>2021-03-23T09:20:16Z</time>
      </trkpt>
      <trkpt lat="44.83127" lon="5.37939">
        <ele>1497.87</ele>
        <time>2021-03-23T09:20:22Z</time>
      </trkpt>
      <trkpt lat="44.83128" lon="5.37934">
        <ele>1497.87</ele>
        <time>2021-03-23T09:20:27Z</time>
      </trkpt>
      <trkpt lat="44.83133" lon="5.37932">
        <ele>1497.87</ele>
        <time>2021-03-23T09:20:40Z</time>
      </trkpt>
      <trkpt lat="44.83136" lon="5.37933">
        <ele>1498.35</ele>
        <time>2021-03-23T09:20:56Z</time>
      </trkpt>
      <trkpt lat="44.83136" lon="5.37933">
        <ele>1497.87</ele>
        <time>2021-03-23T09:21:20Z</time>
      </trkpt>
      <trkpt lat="44.83139" lon="5.37929">
        <ele>1498.35</ele>
        <time>2021-03-23T09:21:42Z</time>
      </trkpt>
      <trkpt lat="44.83149" lon="5.37915">
        <ele>1500.27</ele>
        <time>2021-03-23T09:21:56Z</time>
      </trkpt>
      <trkpt lat="44.8315" lon="5.37915">
        <ele>1500.27</ele>
        <time>2021-03-23T09:21:57Z</time>
      </trkpt>
      <trkpt lat="44.83155" lon="5.37912">
        <ele>1501.24</ele>
        <time>2021-03-23T09:22:01Z</time>
      </trkpt>
      <trkpt lat="44.83176" lon="5.3791">
        <ele>1502.2</ele>
        <time>2021-03-23T09:22:17Z</time>
      </trkpt>
      <trkpt lat="44.83182" lon="5.37911">
        <ele>1502.2</ele>
        <time>2021-03-23T09:22:22Z</time>
      </trkpt>
      <trkpt lat="44.83195" lon="5.37912">
        <ele>1503.16</ele>
        <time>2021-03-23T09:22:30Z</time>
      </trkpt>
      <trkpt lat="44.8321" lon="5.37922">
        <ele>1503.64</ele>
        <time>2021-03-23T09:22:43Z</time>
      </trkpt>
      <trkpt lat="44.83226" lon="5.37933">
        <ele>1503.64</ele>
        <time>2021-03-23T09:22:57Z</time>
      </trkpt>
      <trkpt lat="44.83244" lon="5.37944">
        <ele>1503.64</ele>
        <time>2021-03-23T09:23:11Z</time>
      </trkpt>
      <trkpt lat="44.83261" lon="5.37946">
        <ele>1503.16</ele>
        <time>2021-03-23T09:23:25Z</time>
      </trkpt>
      <trkpt lat="44.83277" lon="5.3795">
        <ele>1502.68</ele>
        <time>2021-03-23T09:23:36Z</time>
      </trkpt>
      <trkpt lat="44.83285" lon="5.37952">
        <ele>1501.72</ele>
        <time>2021-03-23T09:23:50Z</time>
      </trkpt>
      <trkpt lat="44.83285" lon="5.37952">
        <ele>1501.72</ele>
        <time>2021-03-23T09:23:53Z</time>
      </trkpt>
      <trkpt lat="44.83303" lon="5.37953">
        <ele>1500.76</ele>
        <time>2021-03-23T09:24:07Z</time>
      </trkpt>
      <trkpt lat="44.83317" lon="5.37957">
        <ele>1499.79</ele>
        <time>2021-03-23T09:24:21Z</time>
      </trkpt>
      <trkpt lat="44.83331" lon="5.3796">
        <ele>1498.83</ele>
        <time>2021-03-23T09:24:33Z</time>
      </trkpt>
      <trkpt lat="44.8335" lon="5.37962">
        <ele>1498.35</ele>
        <time>2021-03-23T09:24:46Z</time>
      </trkpt>
      <trkpt lat="44.83363" lon="5.37964">
        <ele>1497.39</ele>
        <time>2021-03-23T09:24:56Z</time>
      </trkpt>
      <trkpt lat="44.83369" lon="5.37965">
        <ele>1496.91</ele>
        <time>2021-03-23T09:25:00Z</time>
      </trkpt>
      <trkpt lat="44.83387" lon="5.37968">
        <ele>1495.47</ele>
        <time>2021-03-23T09:25:14Z</time>
      </trkpt>
      <trkpt lat="44.83403" lon="5.37968">
        <ele>1495.47</ele>
        <time>2021-03-23T09:25:25Z</time>
      </trkpt>
      <trkpt lat="44.83419" lon="5.37971">
        <ele>1494.51</ele>
        <time>2021-03-23T09:25:39Z</time>
      </trkpt>
      <trkpt lat="44.83436" lon="5.3797">
        <ele>1493.55</ele>
        <time>2021-03-23T09:25:55Z</time>
      </trkpt>
      <trkpt lat="44.8345" lon="5.37972">
        <ele>1494.03</ele>
        <time>2021-03-23T09:26:08Z</time>
      </trkpt>
      <trkpt lat="44.83452" lon="5.37971">
        <ele>1493.55</ele>
        <time>2021-03-23T09:26:10Z</time>
      </trkpt>
      <trkpt lat="44.83466" lon="5.37973">
        <ele>1493.55</ele>
        <time>2021-03-23T09:26:24Z</time>
      </trkpt>
      <trkpt lat="44.83482" lon="5.37974">
        <ele>1493.55</ele>
        <time>2021-03-23T09:26:36Z</time>
      </trkpt>
      <trkpt lat="44.83497" lon="5.37975">
        <ele>1492.58</ele>
        <time>2021-03-23T09:26:49Z</time>
      </trkpt>
      <trkpt lat="44.83507" lon="5.37978">
        <ele>1492.1</ele>
        <time>2021-03-23T09:27:00Z</time>
      </trkpt>
      <trkpt lat="44.8351" lon="5.37979">
        <ele>1491.62</ele>
        <time>2021-03-23T09:27:04Z</time>
      </trkpt>
      <trkpt lat="44.83524" lon="5.37986">
        <ele>1491.62</ele>
        <time>2021-03-23T09:27:18Z</time>
      </trkpt>
      <trkpt lat="44.83534" lon="5.37989">
        <ele>1493.06</ele>
        <time>2021-03-23T09:27:31Z</time>
      </trkpt>
      <trkpt lat="44.83537" lon="5.3799">
        <ele>1493.06</ele>
        <time>2021-03-23T09:27:35Z</time>
      </trkpt>
      <trkpt lat="44.83542" lon="5.37992">
        <ele>1492.58</ele>
        <time>2021-03-23T09:27:41Z</time>
      </trkpt>
      <trkpt lat="44.8355" lon="5.37996">
        <ele>1494.03</ele>
        <time>2021-03-23T09:27:51Z</time>
      </trkpt>
      <trkpt lat="44.83556" lon="5.37998">
        <ele>1494.03</ele>
        <time>2021-03-23T09:27:58Z</time>
      </trkpt>
      <trkpt lat="44.8357" lon="5.38008">
        <ele>1493.55</ele>
        <time>2021-03-23T09:28:12Z</time>
      </trkpt>
      <trkpt lat="44.83571" lon="5.38008">
        <ele>1493.55</ele>
        <time>2021-03-23T09:28:14Z</time>
      </trkpt>
      <trkpt lat="44.83586" lon="5.38013">
        <ele>1494.51</ele>
        <time>2021-03-23T09:28:27Z</time>
      </trkpt>
      <trkpt lat="44.8359" lon="5.38013">
        <ele>1494.03</ele>
        <time>2021-03-23T09:28:32Z</time>
      </trkpt>
      <trkpt lat="44.83596" lon="5.38017">
        <ele>1494.51</ele>
        <time>2021-03-23T09:28:40Z</time>
      </trkpt>
      <trkpt lat="44.83608" lon="5.3802">
        <ele>1494.99</ele>
        <time>2021-03-23T09:28:53Z</time>
      </trkpt>
      <trkpt lat="44.83609" lon="5.3802">
        <ele>1495.95</ele>
        <time>2021-03-23T09:28:54Z</time>
      </trkpt>
      <trkpt lat="44.83617" lon="5.38025">
        <ele>1494.99</ele>
        <time>2021-03-23T09:29:03Z</time>
      </trkpt>
      <trkpt lat="44.83629" lon="5.38029">
        <ele>1495.47</ele>
        <time>2021-03-23T09:29:17Z</time>
      </trkpt>
      <trkpt lat="44.83635" lon="5.38032">
        <ele>1496.43</ele>
        <time>2021-03-23T09:29:24Z</time>
      </trkpt>
      <trkpt lat="44.83639" lon="5.38033">
        <ele>1495.95</ele>
        <time>2021-03-23T09:29:28Z</time>
      </trkpt>
      <trkpt lat="44.83642" lon="5.38037">
        <ele>1496.43</ele>
        <time>2021-03-23T09:29:32Z</time>
      </trkpt>
      <trkpt lat="44.83647" lon="5.3804">
        <ele>1496.43</ele>
        <time>2021-03-23T09:29:38Z</time>
      </trkpt>
      <trkpt lat="44.83656" lon="5.38043">
        <ele>1496.91</ele>
        <time>2021-03-23T09:29:47Z</time>
      </trkpt>
      <trkpt lat="44.83661" lon="5.38043">
        <ele>1497.87</ele>
        <time>2021-03-23T09:29:52Z</time>
      </trkpt>
      <trkpt lat="44.83666" lon="5.38046">
        <ele>1498.35</ele>
        <time>2021-03-23T09:29:58Z</time>
      </trkpt>
      <trkpt lat="44.83675" lon="5.3805">
        <ele>1499.31</ele>
        <time>2021-03-23T09:30:09Z</time>
      </trkpt>
      <trkpt lat="44.83681" lon="5.38051">
        <ele>1500.27</ele>
        <time>2021-03-23T09:30:16Z</time>
      </trkpt>
      <trkpt lat="44.83691" lon="5.38056">
        <ele>1500.27</ele>
        <time>2021-03-23T09:30:28Z</time>
      </trkpt>
      <trkpt lat="44.83697" lon="5.38059">
        <ele>1502.68</ele>
        <time>2021-03-23T09:30:37Z</time>
      </trkpt>
      <trkpt lat="44.83708" lon="5.38065">
        <ele>1504.12</ele>
        <time>2021-03-23T09:30:51Z</time>
      </trkpt>
      <trkpt lat="44.83712" lon="5.38066">
        <ele>1504.12</ele>
        <time>2021-03-23T09:30:56Z</time>
      </trkpt>
      <trkpt lat="44.83716" lon="5.38066">
        <ele>1504.6</ele>
        <time>2021-03-23T09:31:00Z</time>
      </trkpt>
      <trkpt lat="44.83729" lon="5.38069">
        <ele>1506.52</ele>
        <time>2021-03-23T09:31:14Z</time>
      </trkpt>
      <trkpt lat="44.83731" lon="5.38069">
        <ele>1507</ele>
        <time>2021-03-23T09:31:16Z</time>
      </trkpt>
      <trkpt lat="44.83738" lon="5.38071">
        <ele>1507</ele>
        <time>2021-03-23T09:31:24Z</time>
      </trkpt>
      <trkpt lat="44.83749" lon="5.38074">
        <ele>1508.45</ele>
        <time>2021-03-23T09:31:34Z</time>
      </trkpt>
      <trkpt lat="44.83754" lon="5.38076">
        <ele>1508.93</ele>
        <time>2021-03-23T09:31:39Z</time>
      </trkpt>
      <trkpt lat="44.83761" lon="5.3808">
        <ele>1509.89</ele>
        <time>2021-03-23T09:31:45Z</time>
      </trkpt>
      <trkpt lat="44.83776" lon="5.38088">
        <ele>1509.41</ele>
        <time>2021-03-23T09:32:00Z</time>
      </trkpt>
      <trkpt lat="44.83792" lon="5.38097">
        <ele>1509.41</ele>
        <time>2021-03-23T09:32:14Z</time>
      </trkpt>
      <trkpt lat="44.83806" lon="5.38109">
        <ele>1510.37</ele>
        <time>2021-03-23T09:32:26Z</time>
      </trkpt>
      <trkpt lat="44.83818" lon="5.38119">
        <ele>1509.89</ele>
        <time>2021-03-23T09:32:37Z</time>
      </trkpt>
      <trkpt lat="44.83836" lon="5.38132">
        <ele>1509.41</ele>
        <time>2021-03-23T09:32:52Z</time>
      </trkpt>
      <trkpt lat="44.83852" lon="5.38146">
        <ele>1506.52</ele>
        <time>2021-03-23T09:33:06Z</time>
      </trkpt>
      <trkpt lat="44.83862" lon="5.38153">
        <ele>1504.12</ele>
        <time>2021-03-23T09:33:15Z</time>
      </trkpt>
      <trkpt lat="44.83864" lon="5.38156">
        <ele>1504.6</ele>
        <time>2021-03-23T09:33:17Z</time>
      </trkpt>
      <trkpt lat="44.83865" lon="5.38158">
        <ele>1503.64</ele>
        <time>2021-03-23T09:33:19Z</time>
      </trkpt>
      <trkpt lat="44.83867" lon="5.38162">
        <ele>1503.16</ele>
        <time>2021-03-23T09:33:21Z</time>
      </trkpt>
      <trkpt lat="44.8387" lon="5.38168">
        <ele>1501.72</ele>
        <time>2021-03-23T09:33:34Z</time>
      </trkpt>
      <trkpt lat="44.83869" lon="5.38171">
        <ele>1500.76</ele>
        <time>2021-03-23T09:33:47Z</time>
      </trkpt>
      <trkpt lat="44.83869" lon="5.38171">
        <ele>1500.76</ele>
        <time>2021-03-23T09:34:16Z</time>
      </trkpt>
      <trkpt lat="44.83869" lon="5.38172">
        <ele>1500.27</ele>
        <time>2021-03-23T09:34:43Z</time>
      </trkpt>
      <trkpt lat="44.83878" lon="5.38174">
        <ele>1499.79</ele>
        <time>2021-03-23T09:34:51Z</time>
      </trkpt>
      <trkpt lat="44.83894" lon="5.38181">
        <ele>1496.43</ele>
        <time>2021-03-23T09:35:02Z</time>
      </trkpt>
      <trkpt lat="44.83895" lon="5.38181">
        <ele>1496.43</ele>
        <time>2021-03-23T09:35:03Z</time>
      </trkpt>
      <trkpt lat="44.83911" lon="5.38189">
        <ele>1492.58</ele>
        <time>2021-03-23T09:35:15Z</time>
      </trkpt>
      <trkpt lat="44.83915" lon="5.38194">
        <ele>1491.62</ele>
        <time>2021-03-23T09:35:19Z</time>
      </trkpt>
      <trkpt lat="44.83928" lon="5.38203">
        <ele>1488.26</ele>
        <time>2021-03-23T09:35:30Z</time>
      </trkpt>
      <trkpt lat="44.83939" lon="5.38214">
        <ele>1484.89</ele>
        <time>2021-03-23T09:35:41Z</time>
      </trkpt>
      <trkpt lat="44.83944" lon="5.38224">
        <ele>1482.97</ele>
        <time>2021-03-23T09:35:49Z</time>
      </trkpt>
      <trkpt lat="44.8395" lon="5.38232">
        <ele>1481.05</ele>
        <time>2021-03-23T09:35:55Z</time>
      </trkpt>
      <trkpt lat="44.83956" lon="5.38242">
        <ele>1477.68</ele>
        <time>2021-03-23T09:36:04Z</time>
      </trkpt>
      <trkpt lat="44.83959" lon="5.38247">
        <ele>1476.72</ele>
        <time>2021-03-23T09:36:08Z</time>
      </trkpt>
      <trkpt lat="44.83967" lon="5.38252">
        <ele>1474.32</ele>
        <time>2021-03-23T09:36:14Z</time>
      </trkpt>
      <trkpt lat="44.83971" lon="5.3826">
        <ele>1472.4</ele>
        <time>2021-03-23T09:36:20Z</time>
      </trkpt>
      <trkpt lat="44.83976" lon="5.3827">
        <ele>1469.51</ele>
        <time>2021-03-23T09:36:28Z</time>
      </trkpt>
      <trkpt lat="44.8398" lon="5.38281">
        <ele>1467.59</ele>
        <time>2021-03-23T09:36:34Z</time>
      </trkpt>
      <trkpt lat="44.83983" lon="5.38299">
        <ele>1464.71</ele>
        <time>2021-03-23T09:36:44Z</time>
      </trkpt>
      <trkpt lat="44.83988" lon="5.38306">
        <ele>1463.26</ele>
        <time>2021-03-23T09:36:48Z</time>
      </trkpt>
      <trkpt lat="44.83999" lon="5.38323">
        <ele>1459.9</ele>
        <time>2021-03-23T09:37:00Z</time>
      </trkpt>
      <trkpt lat="44.84" lon="5.38324">
        <ele>1459.42</ele>
        <time>2021-03-23T09:37:01Z</time>
      </trkpt>
      <trkpt lat="44.84005" lon="5.38332">
        <ele>1458.46</ele>
        <time>2021-03-23T09:37:06Z</time>
      </trkpt>
      <trkpt lat="44.8401" lon="5.38341">
        <ele>1457.02</ele>
        <time>2021-03-23T09:37:13Z</time>
      </trkpt>
      <trkpt lat="44.84014" lon="5.3835">
        <ele>1455.09</ele>
        <time>2021-03-23T09:37:19Z</time>
      </trkpt>
      <trkpt lat="44.84016" lon="5.38353">
        <ele>1454.61</ele>
        <time>2021-03-23T09:37:21Z</time>
      </trkpt>
      <trkpt lat="44.84018" lon="5.38357">
        <ele>1454.13</ele>
        <time>2021-03-23T09:37:24Z</time>
      </trkpt>
      <trkpt lat="44.84022" lon="5.38363">
        <ele>1453.65</ele>
        <time>2021-03-23T09:37:28Z</time>
      </trkpt>
      <trkpt lat="44.8403" lon="5.38382">
        <ele>1451.73</ele>
        <time>2021-03-23T09:37:40Z</time>
      </trkpt>
      <trkpt lat="44.84033" lon="5.3839">
        <ele>1450.29</ele>
        <time>2021-03-23T09:37:45Z</time>
      </trkpt>
      <trkpt lat="44.84041" lon="5.38403">
        <ele>1448.84</ele>
        <time>2021-03-23T09:37:52Z</time>
      </trkpt>
      <trkpt lat="44.84049" lon="5.38412">
        <ele>1446.92</ele>
        <time>2021-03-23T09:37:59Z</time>
      </trkpt>
      <trkpt lat="44.84063" lon="5.38431">
        <ele>1444.52</ele>
        <time>2021-03-23T09:38:11Z</time>
      </trkpt>
      <trkpt lat="44.8407" lon="5.38441">
        <ele>1443.08</ele>
        <time>2021-03-23T09:38:17Z</time>
      </trkpt>
      <trkpt lat="44.84073" lon="5.38445">
        <ele>1442.6</ele>
        <time>2021-03-23T09:38:21Z</time>
      </trkpt>
      <trkpt lat="44.84085" lon="5.38462">
        <ele>1440.19</ele>
        <time>2021-03-23T09:38:36Z</time>
      </trkpt>
      <trkpt lat="44.84101" lon="5.38483">
        <ele>1437.31</ele>
        <time>2021-03-23T09:38:49Z</time>
      </trkpt>
      <trkpt lat="44.84113" lon="5.385">
        <ele>1435.87</ele>
        <time>2021-03-23T09:39:01Z</time>
      </trkpt>
      <trkpt lat="44.84125" lon="5.38514">
        <ele>1434.91</ele>
        <time>2021-03-23T09:39:12Z</time>
      </trkpt>
      <trkpt lat="44.84128" lon="5.38519">
        <ele>1434.42</ele>
        <time>2021-03-23T09:39:17Z</time>
      </trkpt>
      <trkpt lat="44.84133" lon="5.38527">
        <ele>1433.94</ele>
        <time>2021-03-23T09:39:22Z</time>
      </trkpt>
      <trkpt lat="44.84135" lon="5.38532">
        <ele>1433.46</ele>
        <time>2021-03-23T09:39:25Z</time>
      </trkpt>
      <trkpt lat="44.84147" lon="5.38549">
        <ele>1430.58</ele>
        <time>2021-03-23T09:39:36Z</time>
      </trkpt>
      <trkpt lat="44.84157" lon="5.38565">
        <ele>1427.21</ele>
        <time>2021-03-23T09:39:49Z</time>
      </trkpt>
      <trkpt lat="44.84168" lon="5.38585">
        <ele>1425.29</ele>
        <time>2021-03-23T09:40:00Z</time>
      </trkpt>
      <trkpt lat="44.84169" lon="5.38586">
        <ele>1425.29</ele>
        <time>2021-03-23T09:40:01Z</time>
      </trkpt>
      <trkpt lat="44.84167" lon="5.38588">
        <ele>1425.29</ele>
        <time>2021-03-23T09:40:12Z</time>
      </trkpt>
      <trkpt lat="44.84167" lon="5.38589">
        <ele>1424.81</ele>
        <time>2021-03-23T09:40:17Z</time>
      </trkpt>
      <trkpt lat="44.84165" lon="5.38591">
        <ele>1424.81</ele>
        <time>2021-03-23T09:40:21Z</time>
      </trkpt>
      <trkpt lat="44.84166" lon="5.3859">
        <ele>1425.29</ele>
        <time>2021-03-23T09:40:25Z</time>
      </trkpt>
      <trkpt lat="44.84171" lon="5.38597">
        <ele>1424.81</ele>
        <time>2021-03-23T09:40:30Z</time>
      </trkpt>
      <trkpt lat="44.84174" lon="5.38601">
        <ele>1423.85</ele>
        <time>2021-03-23T09:40:33Z</time>
      </trkpt>
      <trkpt lat="44.84181" lon="5.38606">
        <ele>1422.41</ele>
        <time>2021-03-23T09:40:39Z</time>
      </trkpt>
      <trkpt lat="44.84187" lon="5.38628">
        <ele>1420.49</ele>
        <time>2021-03-23T09:40:52Z</time>
      </trkpt>
      <trkpt lat="44.84192" lon="5.38638">
        <ele>1419.52</ele>
        <time>2021-03-23T09:40:58Z</time>
      </trkpt>
      <trkpt lat="44.84199" lon="5.38649">
        <ele>1419.04</ele>
        <time>2021-03-23T09:41:04Z</time>
      </trkpt>
      <trkpt lat="44.84203" lon="5.38656">
        <ele>1418.56</ele>
        <time>2021-03-23T09:41:08Z</time>
      </trkpt>
      <trkpt lat="44.84213" lon="5.38675">
        <ele>1416.64</ele>
        <time>2021-03-23T09:41:19Z</time>
      </trkpt>
      <trkpt lat="44.84229" lon="5.38694">
        <ele>1414.24</ele>
        <time>2021-03-23T09:41:31Z</time>
      </trkpt>
      <trkpt lat="44.84231" lon="5.38699">
        <ele>1414.24</ele>
        <time>2021-03-23T09:41:33Z</time>
      </trkpt>
      <trkpt lat="44.84239" lon="5.38713">
        <ele>1414.72</ele>
        <time>2021-03-23T09:41:41Z</time>
      </trkpt>
      <trkpt lat="44.84249" lon="5.38722">
        <ele>1414.72</ele>
        <time>2021-03-23T09:41:49Z</time>
      </trkpt>
      <trkpt lat="44.84268" lon="5.38744">
        <ele>1415.68</ele>
        <time>2021-03-23T09:42:06Z</time>
      </trkpt>
      <trkpt lat="44.84274" lon="5.38751">
        <ele>1416.64</ele>
        <time>2021-03-23T09:42:14Z</time>
      </trkpt>
      <trkpt lat="44.84283" lon="5.38763">
        <ele>1418.08</ele>
        <time>2021-03-23T09:42:24Z</time>
      </trkpt>
      <trkpt lat="44.84286" lon="5.38765">
        <ele>1418.56</ele>
        <time>2021-03-23T09:42:26Z</time>
      </trkpt>
      <trkpt lat="44.84291" lon="5.38773">
        <ele>1418.56</ele>
        <time>2021-03-23T09:42:31Z</time>
      </trkpt>
      <trkpt lat="44.84292" lon="5.38775">
        <ele>1418.56</ele>
        <time>2021-03-23T09:42:33Z</time>
      </trkpt>
      <trkpt lat="44.84297" lon="5.38783">
        <ele>1419.52</ele>
        <time>2021-03-23T09:42:40Z</time>
      </trkpt>
      <trkpt lat="44.843" lon="5.38788">
        <ele>1420.97</ele>
        <time>2021-03-23T09:42:46Z</time>
      </trkpt>
      <trkpt lat="44.84303" lon="5.38793">
        <ele>1422.89</ele>
        <time>2021-03-23T09:42:52Z</time>
      </trkpt>
      <trkpt lat="44.84308" lon="5.38801">
        <ele>1423.85</ele>
        <time>2021-03-23T09:43:01Z</time>
      </trkpt>
      <trkpt lat="44.8431" lon="5.38805">
        <ele>1424.81</ele>
        <time>2021-03-23T09:43:05Z</time>
      </trkpt>
      <trkpt lat="44.84316" lon="5.38821">
        <ele>1426.25</ele>
        <time>2021-03-23T09:43:18Z</time>
      </trkpt>
      <trkpt lat="44.84318" lon="5.3883">
        <ele>1430.1</ele>
        <time>2021-03-23T09:43:29Z</time>
      </trkpt>
      <trkpt lat="44.84318" lon="5.3883">
        <ele>1429.14</ele>
        <time>2021-03-23T09:43:30Z</time>
      </trkpt>
      <trkpt lat="44.84319" lon="5.38838">
        <ele>1431.06</ele>
        <time>2021-03-23T09:43:40Z</time>
      </trkpt>
      <trkpt lat="44.84321" lon="5.38846">
        <ele>1432.5</ele>
        <time>2021-03-23T09:43:52Z</time>
      </trkpt>
      <trkpt lat="44.84323" lon="5.38856">
        <ele>1434.91</ele>
        <time>2021-03-23T09:44:04Z</time>
      </trkpt>
      <trkpt lat="44.84324" lon="5.38861">
        <ele>1437.31</ele>
        <time>2021-03-23T09:44:15Z</time>
      </trkpt>
      <trkpt lat="44.84324" lon="5.38861">
        <ele>1437.79</ele>
        <time>2021-03-23T09:44:18Z</time>
      </trkpt>
      <trkpt lat="44.84325" lon="5.38866">
        <ele>1438.75</ele>
        <time>2021-03-23T09:44:29Z</time>
      </trkpt>
      <trkpt lat="44.84331" lon="5.38872">
        <ele>1441.15</ele>
        <time>2021-03-23T09:44:38Z</time>
      </trkpt>
      <trkpt lat="44.84339" lon="5.38878">
        <ele>1442.11</ele>
        <time>2021-03-23T09:44:50Z</time>
      </trkpt>
      <trkpt lat="44.84344" lon="5.38885">
        <ele>1444.04</ele>
        <time>2021-03-23T09:45:01Z</time>
      </trkpt>
      <trkpt lat="44.84344" lon="5.38887">
        <ele>1445.48</ele>
        <time>2021-03-23T09:45:11Z</time>
      </trkpt>
      <trkpt lat="44.84346" lon="5.38893">
        <ele>1446.44</ele>
        <time>2021-03-23T09:45:23Z</time>
      </trkpt>
      <trkpt lat="44.84347" lon="5.38901">
        <ele>1449.32</ele>
        <time>2021-03-23T09:45:33Z</time>
      </trkpt>
      <trkpt lat="44.84348" lon="5.38907">
        <ele>1451.25</ele>
        <time>2021-03-23T09:45:45Z</time>
      </trkpt>
      <trkpt lat="44.84347" lon="5.3891">
        <ele>1453.17</ele>
        <time>2021-03-23T09:45:56Z</time>
      </trkpt>
      <trkpt lat="44.84349" lon="5.38915">
        <ele>1453.17</ele>
        <time>2021-03-23T09:46:07Z</time>
      </trkpt>
      <trkpt lat="44.84352" lon="5.3892">
        <ele>1455.57</ele>
        <time>2021-03-23T09:46:17Z</time>
      </trkpt>
      <trkpt lat="44.84354" lon="5.38924">
        <ele>1457.98</ele>
        <time>2021-03-23T09:46:30Z</time>
      </trkpt>
      <trkpt lat="44.84358" lon="5.38929">
        <ele>1458.46</ele>
        <time>2021-03-23T09:46:41Z</time>
      </trkpt>
      <trkpt lat="44.84363" lon="5.38935">
        <ele>1461.82</ele>
        <time>2021-03-23T09:46:55Z</time>
      </trkpt>
      <trkpt lat="44.8437" lon="5.38941">
        <ele>1462.78</ele>
        <time>2021-03-23T09:47:07Z</time>
      </trkpt>
      <trkpt lat="44.84374" lon="5.38945">
        <ele>1463.26</ele>
        <time>2021-03-23T09:47:17Z</time>
      </trkpt>
      <trkpt lat="44.84378" lon="5.38948">
        <ele>1465.67</ele>
        <time>2021-03-23T09:47:28Z</time>
      </trkpt>
      <trkpt lat="44.8438" lon="5.38951">
        <ele>1466.63</ele>
        <time>2021-03-23T09:47:39Z</time>
      </trkpt>
      <trkpt lat="44.84379" lon="5.38952">
        <ele>1467.59</ele>
        <time>2021-03-23T09:47:42Z</time>
      </trkpt>
      <trkpt lat="44.84379" lon="5.38955">
        <ele>1467.11</ele>
        <time>2021-03-23T09:47:45Z</time>
      </trkpt>
      <trkpt lat="44.84375" lon="5.38961">
        <ele>1469.51</ele>
        <time>2021-03-23T09:47:58Z</time>
      </trkpt>
      <trkpt lat="44.84371" lon="5.38968">
        <ele>1470.95</ele>
        <time>2021-03-23T09:48:10Z</time>
      </trkpt>
      <trkpt lat="44.84366" lon="5.38973">
        <ele>1472.88</ele>
        <time>2021-03-23T09:48:22Z</time>
      </trkpt>
      <trkpt lat="44.84363" lon="5.38979">
        <ele>1474.8</ele>
        <time>2021-03-23T09:48:35Z</time>
      </trkpt>
      <trkpt lat="44.8436" lon="5.38985">
        <ele>1475.76</ele>
        <time>2021-03-23T09:48:46Z</time>
      </trkpt>
      <trkpt lat="44.84359" lon="5.3899">
        <ele>1478.65</ele>
        <time>2021-03-23T09:48:55Z</time>
      </trkpt>
      <trkpt lat="44.84356" lon="5.39001">
        <ele>1480.09</ele>
        <time>2021-03-23T09:49:07Z</time>
      </trkpt>
      <trkpt lat="44.84355" lon="5.3901">
        <ele>1482.49</ele>
        <time>2021-03-23T09:49:19Z</time>
      </trkpt>
      <trkpt lat="44.84353" lon="5.39015">
        <ele>1484.41</ele>
        <time>2021-03-23T09:49:30Z</time>
      </trkpt>
      <trkpt lat="44.84354" lon="5.39023">
        <ele>1487.78</ele>
        <time>2021-03-23T09:49:42Z</time>
      </trkpt>
      <trkpt lat="44.8436" lon="5.39038">
        <ele>1489.7</ele>
        <time>2021-03-23T09:49:58Z</time>
      </trkpt>
      <trkpt lat="44.84361" lon="5.39039">
        <ele>1490.18</ele>
        <time>2021-03-23T09:50:00Z</time>
      </trkpt>
      <trkpt lat="44.84368" lon="5.39042">
        <ele>1491.14</ele>
        <time>2021-03-23T09:50:14Z</time>
      </trkpt>
      <trkpt lat="44.84372" lon="5.39047">
        <ele>1491.62</ele>
        <time>2021-03-23T09:50:24Z</time>
      </trkpt>
      <trkpt lat="44.84375" lon="5.39049">
        <ele>1492.58</ele>
        <time>2021-03-23T09:50:35Z</time>
      </trkpt>
      <trkpt lat="44.8438" lon="5.39049">
        <ele>1495.47</ele>
        <time>2021-03-23T09:50:48Z</time>
      </trkpt>
      <trkpt lat="44.84384" lon="5.39056">
        <ele>1497.39</ele>
        <time>2021-03-23T09:50:56Z</time>
      </trkpt>
      <trkpt lat="44.8439" lon="5.39065">
        <ele>1499.79</ele>
        <time>2021-03-23T09:51:07Z</time>
      </trkpt>
      <trkpt lat="44.84394" lon="5.39069">
        <ele>1501.72</ele>
        <time>2021-03-23T09:51:21Z</time>
      </trkpt>
      <trkpt lat="44.84399" lon="5.39072">
        <ele>1503.16</ele>
        <time>2021-03-23T09:51:31Z</time>
      </trkpt>
      <trkpt lat="44.84403" lon="5.39077">
        <ele>1504.6</ele>
        <time>2021-03-23T09:51:41Z</time>
      </trkpt>
      <trkpt lat="44.84408" lon="5.39081">
        <ele>1507</ele>
        <time>2021-03-23T09:51:51Z</time>
      </trkpt>
      <trkpt lat="44.84412" lon="5.39088">
        <ele>1507.97</ele>
        <time>2021-03-23T09:52:01Z</time>
      </trkpt>
      <trkpt lat="44.84415" lon="5.39098">
        <ele>1509.41</ele>
        <time>2021-03-23T09:52:11Z</time>
      </trkpt>
      <trkpt lat="44.84418" lon="5.39101">
        <ele>1511.33</ele>
        <time>2021-03-23T09:52:17Z</time>
      </trkpt>
      <trkpt lat="44.84426" lon="5.39104">
        <ele>1513.73</ele>
        <time>2021-03-23T09:52:27Z</time>
      </trkpt>
      <trkpt lat="44.84436" lon="5.39109">
        <ele>1514.69</ele>
        <time>2021-03-23T09:52:38Z</time>
      </trkpt>
      <trkpt lat="44.84443" lon="5.39112">
        <ele>1516.62</ele>
        <time>2021-03-23T09:52:48Z</time>
      </trkpt>
      <trkpt lat="44.84451" lon="5.39118">
        <ele>1518.06</ele>
        <time>2021-03-23T09:52:59Z</time>
      </trkpt>
      <trkpt lat="44.84455" lon="5.39118">
        <ele>1519.5</ele>
        <time>2021-03-23T09:53:04Z</time>
      </trkpt>
      <trkpt lat="44.84466" lon="5.39126">
        <ele>1522.39</ele>
        <time>2021-03-23T09:53:17Z</time>
      </trkpt>
      <trkpt lat="44.8447" lon="5.39128">
        <ele>1523.35</ele>
        <time>2021-03-23T09:53:23Z</time>
      </trkpt>
      <trkpt lat="44.8448" lon="5.39134">
        <ele>1525.27</ele>
        <time>2021-03-23T09:53:37Z</time>
      </trkpt>
      <trkpt lat="44.84487" lon="5.39139">
        <ele>1526.23</ele>
        <time>2021-03-23T09:53:46Z</time>
      </trkpt>
      <trkpt lat="44.84493" lon="5.39143">
        <ele>1527.67</ele>
        <time>2021-03-23T09:53:55Z</time>
      </trkpt>
      <trkpt lat="44.84495" lon="5.39145">
        <ele>1526.71</ele>
        <time>2021-03-23T09:53:58Z</time>
      </trkpt>
      <trkpt lat="44.845" lon="5.39149">
        <ele>1532</ele>
        <time>2021-03-23T09:54:10Z</time>
      </trkpt>
      <trkpt lat="44.84505" lon="5.39154">
        <ele>1533.44</ele>
        <time>2021-03-23T09:54:21Z</time>
      </trkpt>
      <trkpt lat="44.84509" lon="5.39157">
        <ele>1536.8</ele>
        <time>2021-03-23T09:54:31Z</time>
      </trkpt>
      <trkpt lat="44.84511" lon="5.3916">
        <ele>1538.73</ele>
        <time>2021-03-23T09:54:43Z</time>
      </trkpt>
      <trkpt lat="44.84514" lon="5.39166">
        <ele>1541.13</ele>
        <time>2021-03-23T09:54:52Z</time>
      </trkpt>
      <trkpt lat="44.8452" lon="5.39171">
        <ele>1544.01</ele>
        <time>2021-03-23T09:55:06Z</time>
      </trkpt>
      <trkpt lat="44.84523" lon="5.39174">
        <ele>1545.94</ele>
        <time>2021-03-23T09:55:19Z</time>
      </trkpt>
      <trkpt lat="44.84528" lon="5.39178">
        <ele>1548.34</ele>
        <time>2021-03-23T09:55:30Z</time>
      </trkpt>
      <trkpt lat="44.8453" lon="5.39182">
        <ele>1550.26</ele>
        <time>2021-03-23T09:55:40Z</time>
      </trkpt>
      <trkpt lat="44.84533" lon="5.39186">
        <ele>1552.67</ele>
        <time>2021-03-23T09:55:52Z</time>
      </trkpt>
      <trkpt lat="44.84538" lon="5.39193">
        <ele>1556.51</ele>
        <time>2021-03-23T09:56:06Z</time>
      </trkpt>
      <trkpt lat="44.84541" lon="5.39198">
        <ele>1557.95</ele>
        <time>2021-03-23T09:56:17Z</time>
      </trkpt>
      <trkpt lat="44.84542" lon="5.39201">
        <ele>1560.84</ele>
        <time>2021-03-23T09:56:28Z</time>
      </trkpt>
      <trkpt lat="44.84543" lon="5.39203">
        <ele>1561.32</ele>
        <time>2021-03-23T09:56:33Z</time>
      </trkpt>
      <trkpt lat="44.84546" lon="5.39207">
        <ele>1563.24</ele>
        <time>2021-03-23T09:56:43Z</time>
      </trkpt>
      <trkpt lat="44.84549" lon="5.39211">
        <ele>1565.64</ele>
        <time>2021-03-23T09:56:50Z</time>
      </trkpt>
      <trkpt lat="44.84551" lon="5.39216">
        <ele>1568.05</ele>
        <time>2021-03-23T09:57:03Z</time>
      </trkpt>
      <trkpt lat="44.84552" lon="5.3922">
        <ele>1569.01</ele>
        <time>2021-03-23T09:57:14Z</time>
      </trkpt>
      <trkpt lat="44.84552" lon="5.39221">
        <ele>1571.89</ele>
        <time>2021-03-23T09:57:25Z</time>
      </trkpt>
      <trkpt lat="44.84553" lon="5.39223">
        <ele>1568.53</ele>
        <time>2021-03-23T09:57:27Z</time>
      </trkpt>
      <trkpt lat="44.84553" lon="5.39223">
        <ele>1571.89</ele>
        <time>2021-03-23T09:57:28Z</time>
      </trkpt>
      <trkpt lat="44.84554" lon="5.39227">
        <ele>1572.85</ele>
        <time>2021-03-23T09:57:35Z</time>
      </trkpt>
      <trkpt lat="44.84556" lon="5.39229">
        <ele>1573.82</ele>
        <time>2021-03-23T09:57:46Z</time>
      </trkpt>
      <trkpt lat="44.84556" lon="5.39235">
        <ele>1574.78</ele>
        <time>2021-03-23T09:58:00Z</time>
      </trkpt>
      <trkpt lat="44.84558" lon="5.39241">
        <ele>1578.14</ele>
        <time>2021-03-23T09:58:12Z</time>
      </trkpt>
      <trkpt lat="44.84555" lon="5.39251">
        <ele>1581.51</ele>
        <time>2021-03-23T09:58:26Z</time>
      </trkpt>
      <trkpt lat="44.84559" lon="5.39257">
        <ele>1582.47</ele>
        <time>2021-03-23T09:58:37Z</time>
      </trkpt>
      <trkpt lat="44.84562" lon="5.3926">
        <ele>1585.83</ele>
        <time>2021-03-23T09:58:46Z</time>
      </trkpt>
      <trkpt lat="44.84562" lon="5.39266">
        <ele>1589.2</ele>
        <time>2021-03-23T09:58:57Z</time>
      </trkpt>
      <trkpt lat="44.84564" lon="5.39272">
        <ele>1591.12</ele>
        <time>2021-03-23T09:59:08Z</time>
      </trkpt>
      <trkpt lat="44.84566" lon="5.39277">
        <ele>1592.56</ele>
        <time>2021-03-23T09:59:19Z</time>
      </trkpt>
      <trkpt lat="44.8457" lon="5.39286">
        <ele>1595.45</ele>
        <time>2021-03-23T09:59:30Z</time>
      </trkpt>
      <trkpt lat="44.8457" lon="5.39292">
        <ele>1596.89</ele>
        <time>2021-03-23T09:59:41Z</time>
      </trkpt>
      <trkpt lat="44.8457" lon="5.39296">
        <ele>1599.29</ele>
        <time>2021-03-23T09:59:49Z</time>
      </trkpt>
      <trkpt lat="44.84573" lon="5.393">
        <ele>1601.21</ele>
        <time>2021-03-23T09:59:59Z</time>
      </trkpt>
      <trkpt lat="44.84572" lon="5.39309">
        <ele>1603.14</ele>
        <time>2021-03-23T10:00:11Z</time>
      </trkpt>
      <trkpt lat="44.84575" lon="5.39314">
        <ele>1605.54</ele>
        <time>2021-03-23T10:00:21Z</time>
      </trkpt>
      <trkpt lat="44.84577" lon="5.39319">
        <ele>1607.94</ele>
        <time>2021-03-23T10:00:32Z</time>
      </trkpt>
      <trkpt lat="44.84579" lon="5.39323">
        <ele>1609.86</ele>
        <time>2021-03-23T10:00:43Z</time>
      </trkpt>
      <trkpt lat="44.84582" lon="5.39327">
        <ele>1611.31</ele>
        <time>2021-03-23T10:00:54Z</time>
      </trkpt>
      <trkpt lat="44.84583" lon="5.39333">
        <ele>1614.67</ele>
        <time>2021-03-23T10:01:02Z</time>
      </trkpt>
      <trkpt lat="44.84587" lon="5.39338">
        <ele>1615.15</ele>
        <time>2021-03-23T10:01:13Z</time>
      </trkpt>
      <trkpt lat="44.84586" lon="5.3934">
        <ele>1617.56</ele>
        <time>2021-03-23T10:01:16Z</time>
      </trkpt>
      <trkpt lat="44.84586" lon="5.39345">
        <ele>1619.96</ele>
        <time>2021-03-23T10:01:29Z</time>
      </trkpt>
      <trkpt lat="44.84588" lon="5.3935">
        <ele>1621.4</ele>
        <time>2021-03-23T10:01:38Z</time>
      </trkpt>
      <trkpt lat="44.84591" lon="5.39355">
        <ele>1623.32</ele>
        <time>2021-03-23T10:01:48Z</time>
      </trkpt>
      <trkpt lat="44.84592" lon="5.39357">
        <ele>1623.32</ele>
        <time>2021-03-23T10:01:51Z</time>
      </trkpt>
      <trkpt lat="44.84591" lon="5.39362">
        <ele>1626.21</ele>
        <time>2021-03-23T10:02:02Z</time>
      </trkpt>
      <trkpt lat="44.8459" lon="5.39367">
        <ele>1628.61</ele>
        <time>2021-03-23T10:02:14Z</time>
      </trkpt>
      <trkpt lat="44.84588" lon="5.39372">
        <ele>1630.53</ele>
        <time>2021-03-23T10:02:25Z</time>
      </trkpt>
      <trkpt lat="44.84589" lon="5.39375">
        <ele>1631.49</ele>
        <time>2021-03-23T10:02:31Z</time>
      </trkpt>
      <trkpt lat="44.84592" lon="5.39379">
        <ele>1634.86</ele>
        <time>2021-03-23T10:02:42Z</time>
      </trkpt>
      <trkpt lat="44.84591" lon="5.39385">
        <ele>1634.86</ele>
        <time>2021-03-23T10:02:52Z</time>
      </trkpt>
      <trkpt lat="44.84591" lon="5.3939">
        <ele>1638.22</ele>
        <time>2021-03-23T10:03:01Z</time>
      </trkpt>
      <trkpt lat="44.84592" lon="5.39393">
        <ele>1638.7</ele>
        <time>2021-03-23T10:03:14Z</time>
      </trkpt>
      <trkpt lat="44.84592" lon="5.39396">
        <ele>1642.07</ele>
        <time>2021-03-23T10:03:20Z</time>
      </trkpt>
      <trkpt lat="44.84593" lon="5.39404">
        <ele>1642.55</ele>
        <time>2021-03-23T10:03:32Z</time>
      </trkpt>
      <trkpt lat="44.84593" lon="5.39407">
        <ele>1645.91</ele>
        <time>2021-03-23T10:03:39Z</time>
      </trkpt>
      <trkpt lat="44.84593" lon="5.39407">
        <ele>1645.43</ele>
        <time>2021-03-23T10:03:55Z</time>
      </trkpt>
      <trkpt lat="44.84593" lon="5.39407">
        <ele>1647.36</ele>
        <time>2021-03-23T10:04:17Z</time>
      </trkpt>
      <trkpt lat="44.84593" lon="5.3941">
        <ele>1648.8</ele>
        <time>2021-03-23T10:04:24Z</time>
      </trkpt>
      <trkpt lat="44.84593" lon="5.39418">
        <ele>1650.72</ele>
        <time>2021-03-23T10:04:34Z</time>
      </trkpt>
      <trkpt lat="44.84589" lon="5.39426">
        <ele>1653.6</ele>
        <time>2021-03-23T10:04:45Z</time>
      </trkpt>
      <trkpt lat="44.84586" lon="5.3943">
        <ele>1655.05</ele>
        <time>2021-03-23T10:04:56Z</time>
      </trkpt>
      <trkpt lat="44.84586" lon="5.3943">
        <ele>1654.57</ele>
        <time>2021-03-23T10:05:18Z</time>
      </trkpt>
      <trkpt lat="44.84587" lon="5.39432">
        <ele>1654.09</ele>
        <time>2021-03-23T10:05:34Z</time>
      </trkpt>
      <trkpt lat="44.84587" lon="5.39432">
        <ele>1654.57</ele>
        <time>2021-03-23T10:05:55Z</time>
      </trkpt>
      <trkpt lat="44.84587" lon="5.39432">
        <ele>1654.57</ele>
        <time>2021-03-23T10:06:16Z</time>
      </trkpt>
      <trkpt lat="44.84587" lon="5.39432">
        <ele>1654.09</ele>
        <time>2021-03-23T10:06:38Z</time>
      </trkpt>
      <trkpt lat="44.84587" lon="5.39432">
        <ele>1653.6</ele>
        <time>2021-03-23T10:06:55Z</time>
      </trkpt>
      <trkpt lat="44.84587" lon="5.39432">
        <ele>1654.09</ele>
        <time>2021-03-23T10:06:57Z</time>
      </trkpt>
      <trkpt lat="44.84584" lon="5.39434">
        <ele>1655.05</ele>
        <time>2021-03-23T10:07:13Z</time>
      </trkpt>
      <trkpt lat="44.84583" lon="5.39433">
        <ele>1654.57</ele>
        <time>2021-03-23T10:07:35Z</time>
      </trkpt>
      <trkpt lat="44.84583" lon="5.39433">
        <ele>1654.09</ele>
        <time>2021-03-23T10:07:36Z</time>
      </trkpt>
      <trkpt lat="44.84583" lon="5.39434">
        <ele>1654.57</ele>
        <time>2021-03-23T10:07:48Z</time>
      </trkpt>
      <trkpt lat="44.84583" lon="5.39434">
        <ele>1650.24</ele>
        <time>2021-03-23T10:07:58Z</time>
      </trkpt>
      <trkpt lat="44.84582" lon="5.39434">
        <ele>1653.12</ele>
        <time>2021-03-23T10:08:01Z</time>
      </trkpt>
      <trkpt lat="44.84582" lon="5.39434">
        <ele>1653.6</ele>
        <time>2021-03-23T10:08:20Z</time>
      </trkpt>
      <trkpt lat="44.84583" lon="5.39433">
        <ele>1654.09</ele>
        <time>2021-03-23T10:08:47Z</time>
      </trkpt>
      <trkpt lat="44.84583" lon="5.39433">
        <ele>1653.6</ele>
        <time>2021-03-23T10:09:09Z</time>
      </trkpt>
      <trkpt lat="44.84583" lon="5.39433">
        <ele>1654.09</ele>
        <time>2021-03-23T10:09:23Z</time>
      </trkpt>
      <trkpt lat="44.84583" lon="5.39433">
        <ele>1653.6</ele>
        <time>2021-03-23T10:09:47Z</time>
      </trkpt>
      <trkpt lat="44.84585" lon="5.39433">
        <ele>1648.32</ele>
        <time>2021-03-23T10:09:58Z</time>
      </trkpt>
      <trkpt lat="44.84585" lon="5.39433">
        <ele>1654.09</ele>
        <time>2021-03-23T10:09:59Z</time>
      </trkpt>
      <trkpt lat="44.84585" lon="5.39433">
        <ele>1653.6</ele>
        <time>2021-03-23T10:10:04Z</time>
      </trkpt>
      <trkpt lat="44.84585" lon="5.39433">
        <ele>1654.09</ele>
        <time>2021-03-23T10:10:31Z</time>
      </trkpt>
      <trkpt lat="44.84585" lon="5.39433">
        <ele>1654.09</ele>
        <time>2021-03-23T10:10:56Z</time>
      </trkpt>
      <trkpt lat="44.84586" lon="5.39433">
        <ele>1653.6</ele>
        <time>2021-03-23T10:11:27Z</time>
      </trkpt>
      <trkpt lat="44.84582" lon="5.39434">
        <ele>1654.09</ele>
        <time>2021-03-23T10:11:42Z</time>
      </trkpt>
      <trkpt lat="44.84582" lon="5.39434">
        <ele>1650.72</ele>
        <time>2021-03-23T10:11:59Z</time>
      </trkpt>
      <trkpt lat="44.84582" lon="5.39434">
        <ele>1651.68</ele>
        <time>2021-03-23T10:12:00Z</time>
      </trkpt>
      <trkpt lat="44.84584" lon="5.39433">
        <ele>1654.09</ele>
        <time>2021-03-23T10:12:02Z</time>
      </trkpt>
      <trkpt lat="44.84586" lon="5.39433">
        <ele>1653.6</ele>
        <time>2021-03-23T10:12:16Z</time>
      </trkpt>
      <trkpt lat="44.84586" lon="5.39433">
        <ele>1653.12</ele>
        <time>2021-03-23T10:12:37Z</time>
      </trkpt>
      <trkpt lat="44.84589" lon="5.39423">
        <ele>1650.24</ele>
        <time>2021-03-23T10:12:51Z</time>
      </trkpt>
      <trkpt lat="44.84591" lon="5.39416">
        <ele>1647.36</ele>
        <time>2021-03-23T10:13:02Z</time>
      </trkpt>
      <trkpt lat="44.84592" lon="5.39411">
        <ele>1643.99</ele>
        <time>2021-03-23T10:13:13Z</time>
      </trkpt>
      <trkpt lat="44.84596" lon="5.39403">
        <ele>1642.07</ele>
        <time>2021-03-23T10:13:25Z</time>
      </trkpt>
      <trkpt lat="44.84593" lon="5.39395">
        <ele>1638.7</ele>
        <time>2021-03-23T10:13:38Z</time>
      </trkpt>
      <trkpt lat="44.84595" lon="5.39389">
        <ele>1635.34</ele>
        <time>2021-03-23T10:13:48Z</time>
      </trkpt>
      <trkpt lat="44.84599" lon="5.39383">
        <ele>1632.94</ele>
        <time>2021-03-23T10:14:01Z</time>
      </trkpt>
      <trkpt lat="44.84596" lon="5.39378">
        <ele>1630.05</ele>
        <time>2021-03-23T10:14:12Z</time>
      </trkpt>
      <trkpt lat="44.84591" lon="5.39372">
        <ele>1627.65</ele>
        <time>2021-03-23T10:14:27Z</time>
      </trkpt>
      <trkpt lat="44.84594" lon="5.39365">
        <ele>1624.77</ele>
        <time>2021-03-23T10:14:39Z</time>
      </trkpt>
      <trkpt lat="44.84592" lon="5.39356">
        <ele>1621.4</ele>
        <time>2021-03-23T10:14:53Z</time>
      </trkpt>
      <trkpt lat="44.84593" lon="5.39353">
        <ele>1619.48</ele>
        <time>2021-03-23T10:15:04Z</time>
      </trkpt>
      <trkpt lat="44.84591" lon="5.3935">
        <ele>1616.59</ele>
        <time>2021-03-23T10:15:17Z</time>
      </trkpt>
      <trkpt lat="44.84593" lon="5.39342">
        <ele>1614.67</ele>
        <time>2021-03-23T10:15:26Z</time>
      </trkpt>
      <trkpt lat="44.84589" lon="5.39334">
        <ele>1611.31</ele>
        <time>2021-03-23T10:15:38Z</time>
      </trkpt>
      <trkpt lat="44.84584" lon="5.39329">
        <ele>1608.42</ele>
        <time>2021-03-23T10:15:51Z</time>
      </trkpt>
      <trkpt lat="44.84584" lon="5.39317">
        <ele>1605.06</ele>
        <time>2021-03-23T10:16:01Z</time>
      </trkpt>
      <trkpt lat="44.84582" lon="5.39309">
        <ele>1602.66</ele>
        <time>2021-03-23T10:16:14Z</time>
      </trkpt>
      <trkpt lat="44.84579" lon="5.39305">
        <ele>1599.29</ele>
        <time>2021-03-23T10:16:25Z</time>
      </trkpt>
      <trkpt lat="44.84577" lon="5.39301">
        <ele>1597.85</ele>
        <time>2021-03-23T10:16:29Z</time>
      </trkpt>
      <trkpt lat="44.84579" lon="5.39298">
        <ele>1597.37</ele>
        <time>2021-03-23T10:16:32Z</time>
      </trkpt>
      <trkpt lat="44.8458" lon="5.39288">
        <ele>1594.48</ele>
        <time>2021-03-23T10:16:45Z</time>
      </trkpt>
      <trkpt lat="44.84579" lon="5.39287">
        <ele>1594.48</ele>
        <time>2021-03-23T10:16:46Z</time>
      </trkpt>
      <trkpt lat="44.84574" lon="5.39282">
        <ele>1591.12</ele>
        <time>2021-03-23T10:16:57Z</time>
      </trkpt>
      <trkpt lat="44.84576" lon="5.39273">
        <ele>1589.2</ele>
        <time>2021-03-23T10:17:05Z</time>
      </trkpt>
      <trkpt lat="44.84575" lon="5.39268">
        <ele>1586.31</ele>
        <time>2021-03-23T10:17:17Z</time>
      </trkpt>
      <trkpt lat="44.84571" lon="5.39264">
        <ele>1583.43</ele>
        <time>2021-03-23T10:17:29Z</time>
      </trkpt>
      <trkpt lat="44.84569" lon="5.39262">
        <ele>1580.06</ele>
        <time>2021-03-23T10:17:40Z</time>
      </trkpt>
      <trkpt lat="44.84567" lon="5.3926">
        <ele>1578.62</ele>
        <time>2021-03-23T10:17:52Z</time>
      </trkpt>
      <trkpt lat="44.84565" lon="5.39254">
        <ele>1575.26</ele>
        <time>2021-03-23T10:18:04Z</time>
      </trkpt>
      <trkpt lat="44.84558" lon="5.39244">
        <ele>1572.37</ele>
        <time>2021-03-23T10:18:17Z</time>
      </trkpt>
      <trkpt lat="44.84556" lon="5.39233">
        <ele>1569.97</ele>
        <time>2021-03-23T10:18:29Z</time>
      </trkpt>
      <trkpt lat="44.84555" lon="5.39232">
        <ele>1566.61</ele>
        <time>2021-03-23T10:18:42Z</time>
      </trkpt>
      <trkpt lat="44.84555" lon="5.39232">
        <ele>1563.72</ele>
        <time>2021-03-23T10:18:54Z</time>
      </trkpt>
      <trkpt lat="44.84555" lon="5.39232">
        <ele>1560.36</ele>
        <time>2021-03-23T10:19:06Z</time>
      </trkpt>
      <trkpt lat="44.84556" lon="5.39232">
        <ele>1557.95</ele>
        <time>2021-03-23T10:19:19Z</time>
      </trkpt>
      <trkpt lat="44.84556" lon="5.39232">
        <ele>1555.07</ele>
        <time>2021-03-23T10:19:32Z</time>
      </trkpt>
      <trkpt lat="44.84556" lon="5.39232">
        <ele>1552.19</ele>
        <time>2021-03-23T10:19:45Z</time>
      </trkpt>
      <trkpt lat="44.84554" lon="5.39225">
        <ele>1550.26</ele>
        <time>2021-03-23T10:19:56Z</time>
      </trkpt>
      <trkpt lat="44.84552" lon="5.39221">
        <ele>1546.9</ele>
        <time>2021-03-23T10:20:08Z</time>
      </trkpt>
      <trkpt lat="44.84552" lon="5.39221">
        <ele>1546.42</ele>
        <time>2021-03-23T10:20:10Z</time>
      </trkpt>
      <trkpt lat="44.84545" lon="5.39214">
        <ele>1544.98</ele>
        <time>2021-03-23T10:20:19Z</time>
      </trkpt>
      <trkpt lat="44.84534" lon="5.39204">
        <ele>1541.61</ele>
        <time>2021-03-23T10:20:33Z</time>
      </trkpt>
      <trkpt lat="44.84534" lon="5.39204">
        <ele>1538.25</ele>
        <time>2021-03-23T10:20:48Z</time>
      </trkpt>
      <trkpt lat="44.84525" lon="5.39194">
        <ele>1536.8</ele>
        <time>2021-03-23T10:21:00Z</time>
      </trkpt>
      <trkpt lat="44.84509" lon="5.39182">
        <ele>1534.4</ele>
        <time>2021-03-23T10:21:13Z</time>
      </trkpt>
      <trkpt lat="44.84497" lon="5.39175">
        <ele>1532</ele>
        <time>2021-03-23T10:21:22Z</time>
      </trkpt>
      <trkpt lat="44.84491" lon="5.39173">
        <ele>1531.04</ele>
        <time>2021-03-23T10:21:28Z</time>
      </trkpt>
      <trkpt lat="44.84483" lon="5.3916">
        <ele>1528.63</ele>
        <time>2021-03-23T10:21:42Z</time>
      </trkpt>
      <trkpt lat="44.84483" lon="5.3916">
        <ele>1528.15</ele>
        <time>2021-03-23T10:22:10Z</time>
      </trkpt>
      <trkpt lat="44.8448" lon="5.39158">
        <ele>1527.19</ele>
        <time>2021-03-23T10:22:23Z</time>
      </trkpt>
      <trkpt lat="44.84476" lon="5.39152">
        <ele>1525.75</ele>
        <time>2021-03-23T10:22:27Z</time>
      </trkpt>
      <trkpt lat="44.84473" lon="5.3915">
        <ele>1525.27</ele>
        <time>2021-03-23T10:22:39Z</time>
      </trkpt>
      <trkpt lat="44.8447" lon="5.39147">
        <ele>1524.79</ele>
        <time>2021-03-23T10:22:41Z</time>
      </trkpt>
      <trkpt lat="44.84467" lon="5.39143">
        <ele>1524.31</ele>
        <time>2021-03-23T10:22:45Z</time>
      </trkpt>
      <trkpt lat="44.84458" lon="5.39134">
        <ele>1521.9</ele>
        <time>2021-03-23T10:22:58Z</time>
      </trkpt>
      <trkpt lat="44.84457" lon="5.39132">
        <ele>1521.42</ele>
        <time>2021-03-23T10:23:00Z</time>
      </trkpt>
      <trkpt lat="44.84449" lon="5.39125">
        <ele>1519.98</ele>
        <time>2021-03-23T10:23:15Z</time>
      </trkpt>
      <trkpt lat="44.84449" lon="5.39125">
        <ele>1519.02</ele>
        <time>2021-03-23T10:23:20Z</time>
      </trkpt>
      <trkpt lat="44.84439" lon="5.39116">
        <ele>1517.1</ele>
        <time>2021-03-23T10:23:34Z</time>
      </trkpt>
      <trkpt lat="44.84438" lon="5.39116">
        <ele>1516.62</ele>
        <time>2021-03-23T10:23:55Z</time>
      </trkpt>
      <trkpt lat="44.84438" lon="5.39116">
        <ele>1516.62</ele>
        <time>2021-03-23T10:24:21Z</time>
      </trkpt>
      <trkpt lat="44.84438" lon="5.39116">
        <ele>1516.62</ele>
        <time>2021-03-23T10:24:48Z</time>
      </trkpt>
      <trkpt lat="44.84438" lon="5.39116">
        <ele>1516.62</ele>
        <time>2021-03-23T10:24:54Z</time>
      </trkpt>
      <trkpt lat="44.84428" lon="5.39106">
        <ele>1513.25</ele>
        <time>2021-03-23T10:25:05Z</time>
      </trkpt>
      <trkpt lat="44.84417" lon="5.39095">
        <ele>1509.89</ele>
        <time>2021-03-23T10:25:15Z</time>
      </trkpt>
      <trkpt lat="44.8441" lon="5.39087">
        <ele>1507</ele>
        <time>2021-03-23T10:25:23Z</time>
      </trkpt>
      <trkpt lat="44.84407" lon="5.39081">
        <ele>1505.08</ele>
        <time>2021-03-23T10:25:28Z</time>
      </trkpt>
      <trkpt lat="44.84398" lon="5.39073">
        <ele>1502.2</ele>
        <time>2021-03-23T10:25:39Z</time>
      </trkpt>
      <trkpt lat="44.84391" lon="5.39065">
        <ele>1498.83</ele>
        <time>2021-03-23T10:25:49Z</time>
      </trkpt>
      <trkpt lat="44.84389" lon="5.39064">
        <ele>1496.43</ele>
        <time>2021-03-23T10:25:56Z</time>
      </trkpt>
      <trkpt lat="44.84384" lon="5.39061">
        <ele>1494.99</ele>
        <time>2021-03-23T10:26:00Z</time>
      </trkpt>
      <trkpt lat="44.84377" lon="5.3906">
        <ele>1491.62</ele>
        <time>2021-03-23T10:26:08Z</time>
      </trkpt>
      <trkpt lat="44.84374" lon="5.3906">
        <ele>1491.14</ele>
        <time>2021-03-23T10:26:12Z</time>
      </trkpt>
      <trkpt lat="44.84368" lon="5.39049">
        <ele>1490.18</ele>
        <time>2021-03-23T10:26:21Z</time>
      </trkpt>
      <trkpt lat="44.84364" lon="5.39045">
        <ele>1489.22</ele>
        <time>2021-03-23T10:26:33Z</time>
      </trkpt>
      <trkpt lat="44.84364" lon="5.39045">
        <ele>1485.37</ele>
        <time>2021-03-23T10:26:39Z</time>
      </trkpt>
      <trkpt lat="44.84364" lon="5.39045">
        <ele>1491.62</ele>
        <time>2021-03-23T10:26:40Z</time>
      </trkpt>
      <trkpt lat="44.84364" lon="5.39045">
        <ele>1480.09</ele>
        <time>2021-03-23T10:26:42Z</time>
      </trkpt>
      <trkpt lat="44.84364" lon="5.39045">
        <ele>1501.24</ele>
        <time>2021-03-23T10:26:43Z</time>
      </trkpt>
      <trkpt lat="44.84364" lon="5.39045">
        <ele>1473.84</ele>
        <time>2021-03-23T10:26:44Z</time>
      </trkpt>
      <trkpt lat="44.84364" lon="5.39045">
        <ele>1501.24</ele>
        <time>2021-03-23T10:26:45Z</time>
      </trkpt>
      <trkpt lat="44.84364" lon="5.39045">
        <ele>1481.53</ele>
        <time>2021-03-23T10:26:46Z</time>
      </trkpt>
      <trkpt lat="44.84364" lon="5.39045">
        <ele>1489.22</ele>
        <time>2021-03-23T10:26:47Z</time>
      </trkpt>
      <trkpt lat="44.84364" lon="5.39045">
        <ele>1495.95</ele>
        <time>2021-03-23T10:26:48Z</time>
      </trkpt>
      <trkpt lat="44.84364" lon="5.39045">
        <ele>1480.09</ele>
        <time>2021-03-23T10:26:49Z</time>
      </trkpt>
      <trkpt lat="44.84364" lon="5.39045">
        <ele>1495.47</ele>
        <time>2021-03-23T10:26:50Z</time>
      </trkpt>
      <trkpt lat="44.84364" lon="5.39045">
        <ele>1488.26</ele>
        <time>2021-03-23T10:26:51Z</time>
      </trkpt>
      <trkpt lat="44.84364" lon="5.39046">
        <ele>1491.14</ele>
        <time>2021-03-23T10:26:57Z</time>
      </trkpt>
      <trkpt lat="44.84363" lon="5.39046">
        <ele>1487.78</ele>
        <time>2021-03-23T10:27:00Z</time>
      </trkpt>
      <trkpt lat="44.84361" lon="5.39042">
        <ele>1488.26</ele>
        <time>2021-03-23T10:27:08Z</time>
      </trkpt>
      <trkpt lat="44.84358" lon="5.39034">
        <ele>1487.3</ele>
        <time>2021-03-23T10:27:13Z</time>
      </trkpt>
      <trkpt lat="44.84355" lon="5.39027">
        <ele>1485.85</ele>
        <time>2021-03-23T10:27:17Z</time>
      </trkpt>
      <trkpt lat="44.84354" lon="5.39024">
        <ele>1485.37</ele>
        <time>2021-03-23T10:27:19Z</time>
      </trkpt>
      <trkpt lat="44.84354" lon="5.3902">
        <ele>1483.93</ele>
        <time>2021-03-23T10:27:22Z</time>
      </trkpt>
      <trkpt lat="44.84356" lon="5.39014">
        <ele>1482.49</ele>
        <time>2021-03-23T10:27:26Z</time>
      </trkpt>
      <trkpt lat="44.84358" lon="5.39003">
        <ele>1479.13</ele>
        <time>2021-03-23T10:27:34Z</time>
      </trkpt>
      <trkpt lat="44.84361" lon="5.38991">
        <ele>1476.24</ele>
        <time>2021-03-23T10:27:43Z</time>
      </trkpt>
      <trkpt lat="44.84363" lon="5.38987">
        <ele>1475.28</ele>
        <time>2021-03-23T10:27:47Z</time>
      </trkpt>
      <trkpt lat="44.84365" lon="5.38983">
        <ele>1474.32</ele>
        <time>2021-03-23T10:27:50Z</time>
      </trkpt>
      <trkpt lat="44.84372" lon="5.38971">
        <ele>1470.47</ele>
        <time>2021-03-23T10:28:01Z</time>
      </trkpt>
      <trkpt lat="44.84373" lon="5.38968">
        <ele>1469.99</ele>
        <time>2021-03-23T10:28:03Z</time>
      </trkpt>
      <trkpt lat="44.84373" lon="5.38963">
        <ele>1468.55</ele>
        <time>2021-03-23T10:28:07Z</time>
      </trkpt>
      <trkpt lat="44.84372" lon="5.38959">
        <ele>1467.59</ele>
        <time>2021-03-23T10:28:10Z</time>
      </trkpt>
      <trkpt lat="44.8437" lon="5.38953">
        <ele>1466.15</ele>
        <time>2021-03-23T10:28:14Z</time>
      </trkpt>
      <trkpt lat="44.84367" lon="5.38951">
        <ele>1465.19</ele>
        <time>2021-03-23T10:28:17Z</time>
      </trkpt>
      <trkpt lat="44.84367" lon="5.38951">
        <ele>1464.71</ele>
        <time>2021-03-23T10:28:18Z</time>
      </trkpt>
      <trkpt lat="44.84362" lon="5.38941">
        <ele>1461.82</ele>
        <time>2021-03-23T10:28:27Z</time>
      </trkpt>
      <trkpt lat="44.84358" lon="5.38936">
        <ele>1459.9</ele>
        <time>2021-03-23T10:28:34Z</time>
      </trkpt>
      <trkpt lat="44.84353" lon="5.38921">
        <ele>1456.05</ele>
        <time>2021-03-23T10:28:45Z</time>
      </trkpt>
      <trkpt lat="44.84351" lon="5.38916">
        <ele>1453.65</ele>
        <time>2021-03-23T10:28:48Z</time>
      </trkpt>
      <trkpt lat="44.84349" lon="5.38913">
        <ele>1452.69</ele>
        <time>2021-03-23T10:28:52Z</time>
      </trkpt>
      <trkpt lat="44.84349" lon="5.38906">
        <ele>1449.32</ele>
        <time>2021-03-23T10:29:00Z</time>
      </trkpt>
      <trkpt lat="44.84344" lon="5.389">
        <ele>1445.96</ele>
        <time>2021-03-23T10:29:08Z</time>
      </trkpt>
      <trkpt lat="44.84344" lon="5.38898">
        <ele>1445.48</ele>
        <time>2021-03-23T10:29:09Z</time>
      </trkpt>
      <trkpt lat="44.84342" lon="5.38897">
        <ele>1445</ele>
        <time>2021-03-23T10:29:11Z</time>
      </trkpt>
      <trkpt lat="44.84339" lon="5.38893">
        <ele>1442.6</ele>
        <time>2021-03-23T10:29:17Z</time>
      </trkpt>
      <trkpt lat="44.84334" lon="5.38888">
        <ele>1440.67</ele>
        <time>2021-03-23T10:29:24Z</time>
      </trkpt>
      <trkpt lat="44.84332" lon="5.38887">
        <ele>1441.15</ele>
        <time>2021-03-23T10:29:26Z</time>
      </trkpt>
      <trkpt lat="44.84322" lon="5.38877">
        <ele>1438.27</ele>
        <time>2021-03-23T10:29:38Z</time>
      </trkpt>
      <trkpt lat="44.84319" lon="5.38874">
        <ele>1436.83</ele>
        <time>2021-03-23T10:29:42Z</time>
      </trkpt>
      <trkpt lat="44.84309" lon="5.38869">
        <ele>1433.94</ele>
        <time>2021-03-23T10:29:53Z</time>
      </trkpt>
      <trkpt lat="44.84304" lon="5.38868">
        <ele>1432.5</ele>
        <time>2021-03-23T10:29:59Z</time>
      </trkpt>
      <trkpt lat="44.84294" lon="5.38869">
        <ele>1430.1</ele>
        <time>2021-03-23T10:30:08Z</time>
      </trkpt>
      <trkpt lat="44.8429" lon="5.38868">
        <ele>1429.14</ele>
        <time>2021-03-23T10:30:12Z</time>
      </trkpt>
      <trkpt lat="44.84285" lon="5.38865">
        <ele>1428.18</ele>
        <time>2021-03-23T10:30:16Z</time>
      </trkpt>
      <trkpt lat="44.84276" lon="5.38858">
        <ele>1425.29</ele>
        <time>2021-03-23T10:30:24Z</time>
      </trkpt>
      <trkpt lat="44.84273" lon="5.38854">
        <ele>1424.33</ele>
        <time>2021-03-23T10:30:28Z</time>
      </trkpt>
      <trkpt lat="44.84268" lon="5.38849">
        <ele>1422.89</ele>
        <time>2021-03-23T10:30:32Z</time>
      </trkpt>
      <trkpt lat="44.84267" lon="5.38847">
        <ele>1421.93</ele>
        <time>2021-03-23T10:30:34Z</time>
      </trkpt>
      <trkpt lat="44.84257" lon="5.38836">
        <ele>1418.56</ele>
        <time>2021-03-23T10:30:44Z</time>
      </trkpt>
      <trkpt lat="44.84256" lon="5.38834">
        <ele>1418.08</ele>
        <time>2021-03-23T10:30:46Z</time>
      </trkpt>
      <trkpt lat="44.84256" lon="5.38833">
        <ele>1417.6</ele>
        <time>2021-03-23T10:30:47Z</time>
      </trkpt>
      <trkpt lat="44.84254" lon="5.38831">
        <ele>1416.64</ele>
        <time>2021-03-23T10:30:49Z</time>
      </trkpt>
      <trkpt lat="44.84253" lon="5.3883">
        <ele>1416.64</ele>
        <time>2021-03-23T10:30:50Z</time>
      </trkpt>
      <trkpt lat="44.84241" lon="5.3882">
        <ele>1412.79</ele>
        <time>2021-03-23T10:31:01Z</time>
      </trkpt>
      <trkpt lat="44.84232" lon="5.3881">
        <ele>1409.91</ele>
        <time>2021-03-23T10:31:10Z</time>
      </trkpt>
      <trkpt lat="44.8422" lon="5.38799">
        <ele>1407.99</ele>
        <time>2021-03-23T10:31:22Z</time>
      </trkpt>
      <trkpt lat="44.84213" lon="5.38787">
        <ele>1406.55</ele>
        <time>2021-03-23T10:31:29Z</time>
      </trkpt>
      <trkpt lat="44.84211" lon="5.38785">
        <ele>1406.07</ele>
        <time>2021-03-23T10:31:31Z</time>
      </trkpt>
      <trkpt lat="44.84207" lon="5.38779">
        <ele>1404.62</ele>
        <time>2021-03-23T10:31:37Z</time>
      </trkpt>
      <trkpt lat="44.84193" lon="5.38769">
        <ele>1402.22</ele>
        <time>2021-03-23T10:31:49Z</time>
      </trkpt>
      <trkpt lat="44.84177" lon="5.38768">
        <ele>1399.82</ele>
        <time>2021-03-23T10:32:01Z</time>
      </trkpt>
      <trkpt lat="44.84162" lon="5.38769">
        <ele>1397.41</ele>
        <time>2021-03-23T10:32:11Z</time>
      </trkpt>
      <trkpt lat="44.84145" lon="5.38772">
        <ele>1395.01</ele>
        <time>2021-03-23T10:32:24Z</time>
      </trkpt>
      <trkpt lat="44.84143" lon="5.38771">
        <ele>1394.05</ele>
        <time>2021-03-23T10:32:26Z</time>
      </trkpt>
      <trkpt lat="44.84131" lon="5.38771">
        <ele>1392.61</ele>
        <time>2021-03-23T10:32:37Z</time>
      </trkpt>
      <trkpt lat="44.84115" lon="5.38769">
        <ele>1389.72</ele>
        <time>2021-03-23T10:32:47Z</time>
      </trkpt>
      <trkpt lat="44.841" lon="5.38769">
        <ele>1386.36</ele>
        <time>2021-03-23T10:32:59Z</time>
      </trkpt>
      <trkpt lat="44.84099" lon="5.38769">
        <ele>1386.84</ele>
        <time>2021-03-23T10:33:00Z</time>
      </trkpt>
      <trkpt lat="44.84086" lon="5.38769">
        <ele>1383.96</ele>
        <time>2021-03-23T10:33:10Z</time>
      </trkpt>
      <trkpt lat="44.84076" lon="5.38768">
        <ele>1382.99</ele>
        <time>2021-03-23T10:33:17Z</time>
      </trkpt>
      <trkpt lat="44.84069" lon="5.3877">
        <ele>1381.07</ele>
        <time>2021-03-23T10:33:23Z</time>
      </trkpt>
      <trkpt lat="44.84052" lon="5.38764">
        <ele>1378.67</ele>
        <time>2021-03-23T10:33:37Z</time>
      </trkpt>
      <trkpt lat="44.84039" lon="5.38759">
        <ele>1376.75</ele>
        <time>2021-03-23T10:33:48Z</time>
      </trkpt>
      <trkpt lat="44.84023" lon="5.38756">
        <ele>1374.82</ele>
        <time>2021-03-23T10:33:59Z</time>
      </trkpt>
      <trkpt lat="44.84004" lon="5.38751">
        <ele>1372.42</ele>
        <time>2021-03-23T10:34:14Z</time>
      </trkpt>
      <trkpt lat="44.83985" lon="5.38748">
        <ele>1369.54</ele>
        <time>2021-03-23T10:34:28Z</time>
      </trkpt>
      <trkpt lat="44.83973" lon="5.38749">
        <ele>1368.09</ele>
        <time>2021-03-23T10:34:38Z</time>
      </trkpt>
      <trkpt lat="44.83966" lon="5.3875">
        <ele>1367.61</ele>
        <time>2021-03-23T10:34:42Z</time>
      </trkpt>
      <trkpt lat="44.83946" lon="5.38754">
        <ele>1366.17</ele>
        <time>2021-03-23T10:34:55Z</time>
      </trkpt>
      <trkpt lat="44.83931" lon="5.3875">
        <ele>1364.73</ele>
        <time>2021-03-23T10:35:08Z</time>
      </trkpt>
      <trkpt lat="44.83909" lon="5.38748">
        <ele>1363.77</ele>
        <time>2021-03-23T10:35:22Z</time>
      </trkpt>
      <trkpt lat="44.83891" lon="5.38748">
        <ele>1361.84</ele>
        <time>2021-03-23T10:35:35Z</time>
      </trkpt>
      <trkpt lat="44.83876" lon="5.38749">
        <ele>1360.88</ele>
        <time>2021-03-23T10:35:47Z</time>
      </trkpt>
      <trkpt lat="44.8386" lon="5.38746">
        <ele>1359.92</ele>
        <time>2021-03-23T10:35:59Z</time>
      </trkpt>
      <trkpt lat="44.83858" lon="5.38746">
        <ele>1359.92</ele>
        <time>2021-03-23T10:36:00Z</time>
      </trkpt>
      <trkpt lat="44.83842" lon="5.38743">
        <ele>1358.48</ele>
        <time>2021-03-23T10:36:12Z</time>
      </trkpt>
      <trkpt lat="44.83828" lon="5.38742">
        <ele>1357.04</ele>
        <time>2021-03-23T10:36:24Z</time>
      </trkpt>
      <trkpt lat="44.83825" lon="5.38742">
        <ele>1357.04</ele>
        <time>2021-03-23T10:36:26Z</time>
      </trkpt>
      <trkpt lat="44.83809" lon="5.38741">
        <ele>1355.12</ele>
        <time>2021-03-23T10:36:39Z</time>
      </trkpt>
      <trkpt lat="44.83807" lon="5.38742">
        <ele>1355.12</ele>
        <time>2021-03-23T10:36:42Z</time>
      </trkpt>
      <trkpt lat="44.83798" lon="5.38745">
        <ele>1354.15</ele>
        <time>2021-03-23T10:36:51Z</time>
      </trkpt>
      <trkpt lat="44.83794" lon="5.38745">
        <ele>1354.15</ele>
        <time>2021-03-23T10:36:54Z</time>
      </trkpt>
      <trkpt lat="44.83778" lon="5.38749">
        <ele>1353.19</ele>
        <time>2021-03-23T10:37:06Z</time>
      </trkpt>
      <trkpt lat="44.83761" lon="5.38751">
        <ele>1351.75</ele>
        <time>2021-03-23T10:37:19Z</time>
      </trkpt>
      <trkpt lat="44.8374" lon="5.38749">
        <ele>1350.79</ele>
        <time>2021-03-23T10:37:32Z</time>
      </trkpt>
      <trkpt lat="44.83726" lon="5.3875">
        <ele>1350.31</ele>
        <time>2021-03-23T10:37:44Z</time>
      </trkpt>
      <trkpt lat="44.83712" lon="5.38748">
        <ele>1349.83</ele>
        <time>2021-03-23T10:37:56Z</time>
      </trkpt>
      <trkpt lat="44.83704" lon="5.38747">
        <ele>1350.31</ele>
        <time>2021-03-23T10:38:03Z</time>
      </trkpt>
      <trkpt lat="44.83689" lon="5.38749">
        <ele>1348.87</ele>
        <time>2021-03-23T10:38:16Z</time>
      </trkpt>
      <trkpt lat="44.83679" lon="5.38749">
        <ele>1346.46</ele>
        <time>2021-03-23T10:38:29Z</time>
      </trkpt>
      <trkpt lat="44.83679" lon="5.38749">
        <ele>1348.87</ele>
        <time>2021-03-23T10:38:39Z</time>
      </trkpt>
      <trkpt lat="44.83679" lon="5.38749">
        <ele>1347.43</ele>
        <time>2021-03-23T10:38:42Z</time>
      </trkpt>
      <trkpt lat="44.83679" lon="5.38749">
        <ele>1347.91</ele>
        <time>2021-03-23T10:39:03Z</time>
      </trkpt>
      <trkpt lat="44.83674" lon="5.38748">
        <ele>1347.43</ele>
        <time>2021-03-23T10:39:21Z</time>
      </trkpt>
      <trkpt lat="44.83659" lon="5.38748">
        <ele>1347.43</ele>
        <time>2021-03-23T10:39:33Z</time>
      </trkpt>
      <trkpt lat="44.83644" lon="5.38748">
        <ele>1346.94</ele>
        <time>2021-03-23T10:39:45Z</time>
      </trkpt>
      <trkpt lat="44.83634" lon="5.3875">
        <ele>1346.94</ele>
        <time>2021-03-23T10:39:54Z</time>
      </trkpt>
      <trkpt lat="44.83623" lon="5.3875">
        <ele>1346.94</ele>
        <time>2021-03-23T10:40:03Z</time>
      </trkpt>
      <trkpt lat="44.83608" lon="5.38751">
        <ele>1345.98</ele>
        <time>2021-03-23T10:40:17Z</time>
      </trkpt>
      <trkpt lat="44.83596" lon="5.38752">
        <ele>1344.06</ele>
        <time>2021-03-23T10:40:33Z</time>
      </trkpt>
      <trkpt lat="44.8358" lon="5.3875">
        <ele>1343.58</ele>
        <time>2021-03-23T10:40:45Z</time>
      </trkpt>
      <trkpt lat="44.83573" lon="5.38753">
        <ele>1343.1</ele>
        <time>2021-03-23T10:40:51Z</time>
      </trkpt>
      <trkpt lat="44.83551" lon="5.38749">
        <ele>1341.66</ele>
        <time>2021-03-23T10:41:05Z</time>
      </trkpt>
      <trkpt lat="44.83537" lon="5.38756">
        <ele>1339.73</ele>
        <time>2021-03-23T10:41:18Z</time>
      </trkpt>
      <trkpt lat="44.83532" lon="5.38758">
        <ele>1338.29</ele>
        <time>2021-03-23T10:41:23Z</time>
      </trkpt>
      <trkpt lat="44.83513" lon="5.38768">
        <ele>1336.37</ele>
        <time>2021-03-23T10:41:39Z</time>
      </trkpt>
      <trkpt lat="44.83503" lon="5.38767">
        <ele>1335.89</ele>
        <time>2021-03-23T10:41:45Z</time>
      </trkpt>
      <trkpt lat="44.83488" lon="5.38763">
        <ele>1335.89</ele>
        <time>2021-03-23T10:41:56Z</time>
      </trkpt>
      <trkpt lat="44.83483" lon="5.38782">
        <ele>1334.93</ele>
        <time>2021-03-23T10:42:10Z</time>
      </trkpt>
      <trkpt lat="44.83495" lon="5.38795">
        <ele>1333.97</ele>
        <time>2021-03-23T10:42:23Z</time>
      </trkpt>
      <trkpt lat="44.83511" lon="5.38804">
        <ele>1332.52</ele>
        <time>2021-03-23T10:42:39Z</time>
      </trkpt>
      <trkpt lat="44.83523" lon="5.38815">
        <ele>1331.56</ele>
        <time>2021-03-23T10:42:51Z</time>
      </trkpt>
      <trkpt lat="44.83527" lon="5.38819">
        <ele>1331.56</ele>
        <time>2021-03-23T10:42:54Z</time>
      </trkpt>
      <trkpt lat="44.83535" lon="5.38823">
        <ele>1330.6</ele>
        <time>2021-03-23T10:43:01Z</time>
      </trkpt>
      <trkpt lat="44.83543" lon="5.38826">
        <ele>1330.12</ele>
        <time>2021-03-23T10:43:07Z</time>
      </trkpt>
      <trkpt lat="44.83554" lon="5.38834">
        <ele>1328.2</ele>
        <time>2021-03-23T10:43:17Z</time>
      </trkpt>
      <trkpt lat="44.83562" lon="5.38841">
        <ele>1327.72</ele>
        <time>2021-03-23T10:43:24Z</time>
      </trkpt>
      <trkpt lat="44.83575" lon="5.38851">
        <ele>1325.8</ele>
        <time>2021-03-23T10:43:35Z</time>
      </trkpt>
      <trkpt lat="44.8358" lon="5.38854">
        <ele>1325.31</ele>
        <time>2021-03-23T10:43:40Z</time>
      </trkpt>
      <trkpt lat="44.83588" lon="5.38858">
        <ele>1324.35</ele>
        <time>2021-03-23T10:43:46Z</time>
      </trkpt>
      <trkpt lat="44.83604" lon="5.38866">
        <ele>1322.91</ele>
        <time>2021-03-23T10:43:58Z</time>
      </trkpt>
      <trkpt lat="44.83622" lon="5.38879">
        <ele>1320.51</ele>
        <time>2021-03-23T10:44:14Z</time>
      </trkpt>
      <trkpt lat="44.83624" lon="5.38879">
        <ele>1320.51</ele>
        <time>2021-03-23T10:44:15Z</time>
      </trkpt>
      <trkpt lat="44.83644" lon="5.38896">
        <ele>1318.1</ele>
        <time>2021-03-23T10:44:32Z</time>
      </trkpt>
      <trkpt lat="44.83661" lon="5.38911">
        <ele>1316.66</ele>
        <time>2021-03-23T10:44:49Z</time>
      </trkpt>
      <trkpt lat="44.83675" lon="5.38945">
        <ele>1313.3</ele>
        <time>2021-03-23T10:45:10Z</time>
      </trkpt>
      <trkpt lat="44.83674" lon="5.38956">
        <ele>1310.41</ele>
        <time>2021-03-23T10:45:25Z</time>
      </trkpt>
      <trkpt lat="44.83657" lon="5.3897">
        <ele>1307.05</ele>
        <time>2021-03-23T10:45:40Z</time>
      </trkpt>
      <trkpt lat="44.83639" lon="5.38996">
        <ele>1305.13</ele>
        <time>2021-03-23T10:45:55Z</time>
      </trkpt>
      <trkpt lat="44.83639" lon="5.39009">
        <ele>1304.65</ele>
        <time>2021-03-23T10:46:03Z</time>
      </trkpt>
      <trkpt lat="44.83641" lon="5.3902">
        <ele>1303.69</ele>
        <time>2021-03-23T10:46:08Z</time>
      </trkpt>
      <trkpt lat="44.83647" lon="5.39035">
        <ele>1302.24</ele>
        <time>2021-03-23T10:46:19Z</time>
      </trkpt>
      <trkpt lat="44.8365" lon="5.3904">
        <ele>1301.76</ele>
        <time>2021-03-23T10:46:22Z</time>
      </trkpt>
      <trkpt lat="44.83668" lon="5.39059">
        <ele>1298.4</ele>
        <time>2021-03-23T10:46:36Z</time>
      </trkpt>
      <trkpt lat="44.83671" lon="5.39064">
        <ele>1297.92</ele>
        <time>2021-03-23T10:46:39Z</time>
      </trkpt>
      <trkpt lat="44.83672" lon="5.39076">
        <ele>1296.48</ele>
        <time>2021-03-23T10:46:46Z</time>
      </trkpt>
      <trkpt lat="44.8367" lon="5.39073">
        <ele>1296.48</ele>
        <time>2021-03-23T10:46:59Z</time>
      </trkpt>
      <trkpt lat="44.83671" lon="5.39075">
        <ele>1296.48</ele>
        <time>2021-03-23T10:47:18Z</time>
      </trkpt>
      <trkpt lat="44.83673" lon="5.39076">
        <ele>1295.99</ele>
        <time>2021-03-23T10:47:20Z</time>
      </trkpt>
      <trkpt lat="44.83688" lon="5.39081">
        <ele>1294.07</ele>
        <time>2021-03-23T10:47:36Z</time>
      </trkpt>
      <trkpt lat="44.83706" lon="5.39091">
        <ele>1291.67</ele>
        <time>2021-03-23T10:47:51Z</time>
      </trkpt>
      <trkpt lat="44.83727" lon="5.39093">
        <ele>1289.27</ele>
        <time>2021-03-23T10:48:08Z</time>
      </trkpt>
      <trkpt lat="44.83736" lon="5.39095">
        <ele>1287.34</ele>
        <time>2021-03-23T10:48:24Z</time>
      </trkpt>
      <trkpt lat="44.83736" lon="5.39095">
        <ele>1287.34</ele>
        <time>2021-03-23T10:48:50Z</time>
      </trkpt>
      <trkpt lat="44.83736" lon="5.39094">
        <ele>1287.82</ele>
        <time>2021-03-23T10:49:21Z</time>
      </trkpt>
      <trkpt lat="44.83746" lon="5.39097">
        <ele>1286.38</ele>
        <time>2021-03-23T10:49:39Z</time>
      </trkpt>
      <trkpt lat="44.83764" lon="5.39107">
        <ele>1283.5</ele>
        <time>2021-03-23T10:49:53Z</time>
      </trkpt>
      <trkpt lat="44.83783" lon="5.39111">
        <ele>1282.06</ele>
        <time>2021-03-23T10:50:07Z</time>
      </trkpt>
      <trkpt lat="44.83802" lon="5.3912">
        <ele>1280.61</ele>
        <time>2021-03-23T10:50:23Z</time>
      </trkpt>
      <trkpt lat="44.83814" lon="5.3912">
        <ele>1280.13</ele>
        <time>2021-03-23T10:50:34Z</time>
      </trkpt>
      <trkpt lat="44.83827" lon="5.39122">
        <ele>1278.69</ele>
        <time>2021-03-23T10:50:46Z</time>
      </trkpt>
      <trkpt lat="44.83829" lon="5.39124">
        <ele>1278.69</ele>
        <time>2021-03-23T10:50:48Z</time>
      </trkpt>
      <trkpt lat="44.83836" lon="5.39133">
        <ele>1277.25</ele>
        <time>2021-03-23T10:50:53Z</time>
      </trkpt>
      <trkpt lat="44.8385" lon="5.39147">
        <ele>1276.29</ele>
        <time>2021-03-23T10:51:04Z</time>
      </trkpt>
      <trkpt lat="44.8386" lon="5.39164">
        <ele>1274.36</ele>
        <time>2021-03-23T10:51:16Z</time>
      </trkpt>
      <trkpt lat="44.8388" lon="5.39172">
        <ele>1271.96</ele>
        <time>2021-03-23T10:51:31Z</time>
      </trkpt>
      <trkpt lat="44.83893" lon="5.39179">
        <ele>1270.04</ele>
        <time>2021-03-23T10:51:46Z</time>
      </trkpt>
      <trkpt lat="44.83895" lon="5.39179">
        <ele>1269.56</ele>
        <time>2021-03-23T10:51:48Z</time>
      </trkpt>
      <trkpt lat="44.83912" lon="5.39191">
        <ele>1267.64</ele>
        <time>2021-03-23T10:52:02Z</time>
      </trkpt>
      <trkpt lat="44.83924" lon="5.3921">
        <ele>1266.19</ele>
        <time>2021-03-23T10:52:18Z</time>
      </trkpt>
      <trkpt lat="44.83934" lon="5.39253">
        <ele>1264.75</ele>
        <time>2021-03-23T10:52:30Z</time>
      </trkpt>
      <trkpt lat="44.83943" lon="5.39281">
        <ele>1262.83</ele>
        <time>2021-03-23T10:52:46Z</time>
      </trkpt>
      <trkpt lat="44.83954" lon="5.39313">
        <ele>1261.87</ele>
        <time>2021-03-23T10:53:03Z</time>
      </trkpt>
      <trkpt lat="44.83964" lon="5.39326">
        <ele>1260.43</ele>
        <time>2021-03-23T10:53:19Z</time>
      </trkpt>
      <trkpt lat="44.83965" lon="5.39326">
        <ele>1260.43</ele>
        <time>2021-03-23T10:53:20Z</time>
      </trkpt>
      <trkpt lat="44.8398" lon="5.39362">
        <ele>1258.98</ele>
        <time>2021-03-23T10:53:36Z</time>
      </trkpt>
      <trkpt lat="44.8398" lon="5.39363">
        <ele>1258.98</ele>
        <time>2021-03-23T10:53:37Z</time>
      </trkpt>
      <trkpt lat="44.8398" lon="5.39382">
        <ele>1257.54</ele>
        <time>2021-03-23T10:53:49Z</time>
      </trkpt>
      <trkpt lat="44.83977" lon="5.39392">
        <ele>1257.06</ele>
        <time>2021-03-23T10:53:53Z</time>
      </trkpt>
      <trkpt lat="44.83968" lon="5.39406">
        <ele>1256.58</ele>
        <time>2021-03-23T10:54:01Z</time>
      </trkpt>
      <trkpt lat="44.83956" lon="5.39424">
        <ele>1255.14</ele>
        <time>2021-03-23T10:54:15Z</time>
      </trkpt>
      <trkpt lat="44.8395" lon="5.39432">
        <ele>1254.18</ele>
        <time>2021-03-23T10:54:22Z</time>
      </trkpt>
      <trkpt lat="44.83944" lon="5.39464">
        <ele>1252.25</ele>
        <time>2021-03-23T10:54:36Z</time>
      </trkpt>
      <trkpt lat="44.83922" lon="5.39486">
        <ele>1251.29</ele>
        <time>2021-03-23T10:54:53Z</time>
      </trkpt>
      <trkpt lat="44.8392" lon="5.39487">
        <ele>1250.81</ele>
        <time>2021-03-23T10:54:55Z</time>
      </trkpt>
      <trkpt lat="44.83901" lon="5.39496">
        <ele>1248.89</ele>
        <time>2021-03-23T10:55:09Z</time>
      </trkpt>
      <trkpt lat="44.83884" lon="5.39513">
        <ele>1247.45</ele>
        <time>2021-03-23T10:55:24Z</time>
      </trkpt>
      <trkpt lat="44.83881" lon="5.39519">
        <ele>1246.97</ele>
        <time>2021-03-23T10:55:28Z</time>
      </trkpt>
      <trkpt lat="44.83876" lon="5.39525">
        <ele>1246.49</ele>
        <time>2021-03-23T10:55:32Z</time>
      </trkpt>
      <trkpt lat="44.83869" lon="5.39537">
        <ele>1245.04</ele>
        <time>2021-03-23T10:55:40Z</time>
      </trkpt>
      <trkpt lat="44.83867" lon="5.39554">
        <ele>1244.08</ele>
        <time>2021-03-23T10:55:49Z</time>
      </trkpt>
      <trkpt lat="44.83852" lon="5.39578">
        <ele>1243.12</ele>
        <time>2021-03-23T10:56:03Z</time>
      </trkpt>
      <trkpt lat="44.83846" lon="5.39592">
        <ele>1242.16</ele>
        <time>2021-03-23T10:56:15Z</time>
      </trkpt>
      <trkpt lat="44.83846" lon="5.39592">
        <ele>1241.68</ele>
        <time>2021-03-23T10:56:31Z</time>
      </trkpt>
      <trkpt lat="44.8384" lon="5.39605">
        <ele>1241.2</ele>
        <time>2021-03-23T10:56:41Z</time>
      </trkpt>
      <trkpt lat="44.8383" lon="5.39628">
        <ele>1239.76</ele>
        <time>2021-03-23T10:56:55Z</time>
      </trkpt>
      <trkpt lat="44.8383" lon="5.39629">
        <ele>1239.76</ele>
        <time>2021-03-23T10:56:57Z</time>
      </trkpt>
      <trkpt lat="44.83827" lon="5.39631">
        <ele>1239.28</ele>
        <time>2021-03-23T10:57:00Z</time>
      </trkpt>
      <trkpt lat="44.83822" lon="5.39633">
        <ele>1239.28</ele>
        <time>2021-03-23T10:57:05Z</time>
      </trkpt>
      <trkpt lat="44.83813" lon="5.3965">
        <ele>1240.24</ele>
        <time>2021-03-23T10:57:15Z</time>
      </trkpt>
      <trkpt lat="44.83809" lon="5.39678">
        <ele>1240.72</ele>
        <time>2021-03-23T10:57:31Z</time>
      </trkpt>
      <trkpt lat="44.83805" lon="5.39706">
        <ele>1242.16</ele>
        <time>2021-03-23T10:57:47Z</time>
      </trkpt>
      <trkpt lat="44.83805" lon="5.39708">
        <ele>1241.68</ele>
        <time>2021-03-23T10:57:48Z</time>
      </trkpt>
      <trkpt lat="44.83809" lon="5.39739">
        <ele>1242.64</ele>
        <time>2021-03-23T10:58:01Z</time>
      </trkpt>
      <trkpt lat="44.83811" lon="5.39749">
        <ele>1242.64</ele>
        <time>2021-03-23T10:58:16Z</time>
      </trkpt>
      <trkpt lat="44.83811" lon="5.39748">
        <ele>1242.16</ele>
        <time>2021-03-23T10:58:30Z</time>
      </trkpt>
    </trkseg>
  </trk>
</gpx>